Observation data for Canadian on 02/13/2018      Previous  Date  Next       Current Mesonet Observations  Soil Data  Daily Summary Page  Observations in Plain Language
KCA1 130600Z 14010KT M01/M10 A303 RMK A01 T10121097  RH  052%=      5-min Rain = 0
KCA1 130601Z 14010KT M01/M10 A303 RMK A01 T10111096  RH  053%=      5-min Rain = 0
KCA1 130602Z 13010KT M01/M10 A303 RMK A01 T10101095  RH  052%=      5-min Rain = 0
KCA1 130603Z 13010KT M01/M10 A303 RMK A01 T10091095  RH  052%=      5-min Rain = 0
KCA1 130604Z 13010KT M01/M10 A303 RMK A01 T10091095  RH  052%=      5-min Rain = 0
KCA1 130605Z 13010KT M01/M10 A303 RMK A01 T10091095  RH  052%=      5-min Rain = 0
KCA1 130606Z 13009KT M01/M10 A303 RMK A01 T10091095  RH  052%=      5-min Rain = 0
KCA1 130607Z 13009KT M01/M10 A3029 RMK A01 T10091095  RH  052%=      5-min Rain = 0
KCA1 130608Z 13009KT M01/M10 A3029 RMK A01 T10091095  RH  052%=      5-min Rain = 0
KCA1 130609Z 13009KT M01/M10 A3029 RMK A01 T10091095  RH  052%=      5-min Rain = 0
KCA1 130610Z 13009KT M01/M10 A3029 RMK A01 T10101096  RH  052%=      5-min Rain = 0
KCA1 130611Z 12009KT M01/M10 A3029 RMK A01 T10101096  RH  052%=      5-min Rain = 0
KCA1 130612Z 13009KT M01/M10 A3029 RMK A01 T10101096  RH  052%=      5-min Rain = 0
KCA1 130613Z 13008KT M01/M10 A3029 RMK A01 T10101096  RH  052%=      5-min Rain = 0
KCA1 130614Z 12008KT M01/M10 A3029 RMK A01 T10111096  RH  053%=      5-min Rain = 0
KCA1 130615Z 12009KT M01/M10 A3029 RMK A01 T10121096  RH  053%=      5-min Rain = 0
KCA1 130616Z 12008KT M01/M10 A3029 RMK A01 T10121096  RH  053%=      5-min Rain = 0
KCA1 130617Z 12008KT M01/M10 A3029 RMK A01 T10121096  RH  053%=      5-min Rain = 0
KCA1 130618Z 12008KT M01/M10 A3029 RMK A01 T10121095  RH  053%=      5-min Rain = 0
KCA1 130619Z 12008KT M01/M10 A3029 RMK A01 T10121096  RH  053%=      5-min Rain = 0
KCA1 130620Z 12008KT M01/M10 A3029 RMK A01 T10131095  RH  053%=      5-min Rain = 0
KCA1 130621Z 12007KT M01/M10 A3029 RMK A01 T10131095  RH  053%=      5-min Rain = 0
KCA1 130622Z 12007KT M01/M10 A3029 RMK A01 T10131095  RH  054%=      5-min Rain = 0
KCA1 130623Z 11007KT M01/M10 A3029 RMK A01 T10121095  RH  054%=      5-min Rain = 0
KCA1 130624Z 12007KT M01/M10 A3029 RMK A01 T10131095  RH  054%=      5-min Rain = 0
KCA1 130625Z 11006KT M01/M10 A3029 RMK A01 T10141095  RH  054%=      5-min Rain = 0
KCA1 130626Z 12006KT M01/M10 A3029 RMK A01 T10141095  RH  054%=      5-min Rain = 0
KCA1 130627Z 12006KT M01/M10 A3029 RMK A01 T10141095  RH  054%=      5-min Rain = 0
KCA1 130628Z 12007KT M01/M10 A3029 RMK A01 T10141095  RH  054%=      5-min Rain = 0
KCA1 130629Z 12007KT M01/M10 A3029 RMK A01 T10141095  RH  054%=      5-min Rain = 0
KCA1 130630Z 12007KT M01/M10 A3029 RMK A01 T10141095  RH  054%=      5-min Rain = 0
KCA1 130631Z 13007KT M02/M09 A3029 RMK A01 T10151094  RH  055%=      5-min Rain = 0
KCA1 130632Z 12007KT M01/M09 A3029 RMK A01 T10141094  RH  055%=      5-min Rain = 0
KCA1 130633Z 13007KT M01/M09 A3029 RMK A01 T10141094  RH  055%=      5-min Rain = 0
KCA1 130634Z 13007KT M01/M09 A3029 RMK A01 T10141094  RH  055%=      5-min Rain = 0
KCA1 130635Z 13007KT M01/M09 A3029 RMK A01 T10141094  RH  055%=      5-min Rain = 0
KCA1 130636Z 13007KT M02/M09 A3029 RMK A01 T10151094  RH  055%=      5-min Rain = 0
KCA1 130637Z 13007KT M02/M09 A3029 RMK A01 T10151094  RH  055%=      5-min Rain = 0
KCA1 130638Z 13006KT M02/M09 A3029 RMK A01 T10151094  RH  055%=      5-min Rain = 0
KCA1 130639Z 13007KT M02/M09 A3029 RMK A01 T10151094  RH  055%=      5-min Rain = 0
KCA1 130640Z 13007KT M02/M09 A3029 RMK A01 T10151094  RH  055%=      5-min Rain = 0
KCA1 130641Z 13006KT M02/M09 A3029 RMK A01 T10151094  RH  055%=      5-min Rain = 0
KCA1 130642Z 13006KT M02/M09 A3029 RMK A01 T10151094  RH  055%=      5-min Rain = 0
KCA1 130643Z 13007KT M02/M09 A3029 RMK A01 T10151094  RH  055%=      5-min Rain = 0
KCA1 130644Z 13006KT M02/M09 A3029 RMK A01 T10151094  RH  055%=      5-min Rain = 0
KCA1 130645Z 13007KT M02/M09 A3029 RMK A01 T10151094  RH  055%=      5-min Rain = 0
KCA1 130646Z 13006KT M02/M10 A3029 RMK A01 T10161095  RH  055%=      5-min Rain = 0
KCA1 130647Z 13006KT M02/M10 A3029 RMK A01 T10161095  RH  055%=      5-min Rain = 0
KCA1 130648Z 13006KT M02/M10 A3029 RMK A01 T10171095  RH  055%=      5-min Rain = 0
KCA1 130649Z 13006KT M02/M10 A303 RMK A01 T10171095  RH  055%=      5-min Rain = 0
KCA1 130650Z 13006KT M02/M10 A303 RMK A01 T10181096  RH  055%=      5-min Rain = 0
KCA1 130651Z 13006KT M02/M10 A303 RMK A01 T10181095  RH  056%=      5-min Rain = 0
KCA1 130652Z 13006KT M02/M10 A303 RMK A01 T10191096  RH  056%=      5-min Rain = 0
KCA1 130653Z 14006KT M02/M10 A303 RMK A01 T10191096  RH  056%=      5-min Rain = 0
KCA1 130654Z 14006KT M02/M10 A303 RMK A01 T10201097  RH  056%=      5-min Rain = 0
KCA1 130655Z 14006KT M02/M10 A303 RMK A01 T10211097  RH  056%=      5-min Rain = 0
KCA1 130656Z 14006KT M02/M10 A303 RMK A01 T10221098  RH  056%=      5-min Rain = 0
KCA1 130657Z 15005KT M02/M10 A303 RMK A01 T10231098  RH  056%=      5-min Rain = 0
KCA1 130658Z 15005KT M03/M10 A303 RMK A01 T10251100  RH  056%=      5-min Rain = 0
KCA1 130659Z 15006KT M03/M10 A303 RMK A01 T10281102  RH  056%=      5-min Rain = 0
KCA1 130700Z 15006KT M03/M10 A303 RMK A01 T10301104  RH  057%=      5-min Rain = 0
KCA1 130701Z 15006KT M03/M11 A303 RMK A01 T10321106  RH  057%=      5-min Rain = 0
KCA1 130702Z 15005KT M03/M11 A303 RMK A01 T10341107  RH  057%=      5-min Rain = 0
KCA1 130703Z 15005KT M04/M11 A303 RMK A01 T10361108  RH  057%=      5-min Rain = 0
KCA1 130704Z 15005KT M04/M11 A303 RMK A01 T10371109  RH  058%=      5-min Rain = 0
KCA1 130705Z 15005KT M04/M11 A303 RMK A01 T10381109  RH  058%=      5-min Rain = 0
KCA1 130706Z 15005KT M04/M11 A303 RMK A01 T10401111  RH  058%=      5-min Rain = 0
KCA1 130707Z 15004KT M04/M11 A303 RMK A01 T10411111  RH  058%=      5-min Rain = 0
KCA1 130708Z 15004KT M04/M11 A303 RMK A01 T10421111  RH  059%=      5-min Rain = 0
KCA1 130709Z 15004KT M04/M11 A303 RMK A01 T10421111  RH  059%=      5-min Rain = 0
KCA1 130710Z 15004KT M04/M11 A303 RMK A01 T10431111  RH  059%=      5-min Rain = 0
KCA1 130711Z 14005KT M04/M11 A303 RMK A01 T10431111  RH  059%=      5-min Rain = 0
KCA1 130712Z 14005KT M04/M11 A303 RMK A01 T10441111  RH  059%=      5-min Rain = 0
KCA1 130713Z 14004KT M04/M11 A303 RMK A01 T10441111  RH  059%=      5-min Rain = 0
KCA1 130714Z 14004KT M05/M11 A303 RMK A01 T10451112  RH  059%=      5-min Rain = 0
KCA1 130715Z 13003KT M05/M11 A303 RMK A01 T10461113  RH  059%=      5-min Rain = 0
KCA1 130716Z 13003KT M05/M11 A303 RMK A01 T10461113  RH  059%=      5-min Rain = 0
KCA1 130717Z 12003KT M05/M11 A303 RMK A01 T10461113  RH  060%=      5-min Rain = 0
KCA1 130718Z 11002KT M05/M11 A303 RMK A01 T10471114  RH  059%=      5-min Rain = 0
KCA1 130719Z 10003KT M05/M12 A303 RMK A01 T10491115  RH  060%=      5-min Rain = 0
KCA1 130720Z 09003KT M05/M12 A303 RMK A01 T10501115  RH  060%=      5-min Rain = 0
KCA1 130721Z 09003KT M05/M12 A303 RMK A01 T10501115  RH  061%=      5-min Rain = 0
KCA1 130722Z 10004KT M05/M12 A303 RMK A01 T10511115  RH  061%=      5-min Rain = 0
KCA1 130723Z 10004KT M05/M12 A303 RMK A01 T10521115  RH  061%=      5-min Rain = 0
KCA1 130724Z 12004KT M05/M12 A303 RMK A01 T10521115  RH  061%=      5-min Rain = 0
KCA1 130725Z 12004KT M05/M11 A303 RMK A01 T10521114  RH  062%=      5-min Rain = 0
KCA1 130726Z 12004KT M05/M11 A303 RMK A01 T10521113  RH  062%=      5-min Rain = 0
KCA1 130727Z 12004KT M05/M11 A303 RMK A01 T10511112  RH  062%=      5-min Rain = 0
KCA1 130728Z 12004KT M05/M11 A303 RMK A01 T10501111  RH  062%=      5-min Rain = 0
KCA1 130729Z 12004KT M05/M11 A303 RMK A01 T10481109  RH  062%=      5-min Rain = 0
KCA1 130730Z 12004KT M05/M11 A303 RMK A01 T10471108  RH  062%=      5-min Rain = 0
KCA1 130731Z 12004KT M05/M11 A303 RMK A01 T10451107  RH  062%=      5-min Rain = 0
KCA1 130732Z 12004KT M04/M11 A303 RMK A01 T10441107  RH  061%=      5-min Rain = 0
KCA1 130733Z 12003KT M04/M11 A303 RMK A01 T10431107  RH  061%=      5-min Rain = 0
KCA1 130734Z 12003KT M04/M11 A303 RMK A01 T10431108  RH  061%=      5-min Rain = 0
KCA1 130735Z 11004KT M04/M11 A303 RMK A01 T10431108  RH  061%=      5-min Rain = 0
KCA1 130736Z 09004KT M04/M11 A303 RMK A01 T10431108  RH  061%=      5-min Rain = 0
KCA1 130737Z 09004KT M05/M11 A303 RMK A01 T10451110  RH  060%=      5-min Rain = 0
KCA1 130738Z 08004KT M05/M11 A303 RMK A01 T10461110  RH  061%=      5-min Rain = 0
KCA1 130739Z 08004KT M05/M11 A303 RMK A01 T10461110  RH  061%=      5-min Rain = 0
KCA1 130740Z 08005KT M05/M11 A303 RMK A01 T10471110  RH  061%=      5-min Rain = 0
KCA1 130741Z 08005KT M05/M11 A303 RMK A01 T10481110  RH  061%=      5-min Rain = 0
KCA1 130742Z 08005KT M05/M11 A303 RMK A01 T10481110  RH  062%=      5-min Rain = 0
KCA1 130743Z 08004KT M05/M11 A303 RMK A01 T10491111  RH  062%=      5-min Rain = 0
KCA1 130744Z 08004KT M05/M11 A303 RMK A01 T10491110  RH  062%=      5-min Rain = 0
KCA1 130745Z 08005KT M05/M11 A303 RMK A01 T10501110  RH  062%=      5-min Rain = 0
KCA1 130746Z 08005KT M05/M11 A303 RMK A01 T10501110  RH  063%=      5-min Rain = 0
KCA1 130747Z 09004KT M05/M11 A303 RMK A01 T10501110  RH  063%=      5-min Rain = 0
KCA1 130748Z 09004KT M05/M11 A303 RMK A01 T10491108  RH  063%=      5-min Rain = 0
KCA1 130749Z 09004KT M05/M11 A303 RMK A01 T10481108  RH  063%=      5-min Rain = 0
KCA1 130750Z 10004KT M05/M11 A303 RMK A01 T10481107  RH  063%=      5-min Rain = 0
KCA1 130751Z 11004KT M05/M11 A303 RMK A01 T10471106  RH  063%=      5-min Rain = 0
KCA1 130752Z 10005KT M05/M11 A303 RMK A01 T10451105  RH  063%=      5-min Rain = 0
KCA1 130753Z 11005KT M04/M10 A303 RMK A01 T10441104  RH  063%=      5-min Rain = 0
KCA1 130754Z 11005KT M04/M10 A303 RMK A01 T10431103  RH  063%=      5-min Rain = 0
KCA1 130755Z 11005KT M04/M10 A303 RMK A01 T10401100  RH  063%=      5-min Rain = 0
KCA1 130756Z 11005KT M04/M10 A303 RMK A01 T10391099  RH  063%=      5-min Rain = 0
KCA1 130757Z 11005KT M04/M10 A303 RMK A01 T10391100  RH  063%=      5-min Rain = 0
KCA1 130758Z 12005KT M04/M10 A303 RMK A01 T10381099  RH  063%=      5-min Rain = 0
KCA1 130759Z 12005KT M04/M10 A303 RMK A01 T10371098  RH  063%=      5-min Rain = 0
KCA1 130800Z 12006KT M04/M10 A303 RMK A01 T10371098  RH  063%=      5-min Rain = 0
KCA1 130801Z 13006KT M04/M10 A303 RMK A01 T10361097  RH  063%=      5-min Rain = 0
KCA1 130802Z 13006KT M04/M10 A303 RMK A01 T10351095  RH  063%=      5-min Rain = 0
KCA1 130803Z 13006KT M03/M10 A303 RMK A01 T10331095  RH  063%=      5-min Rain = 0
KCA1 130804Z 13007KT M03/M10 A303 RMK A01 T10331095  RH  062%=      5-min Rain = 0
KCA1 130805Z 14007KT M03/M10 A303 RMK A01 T10331095  RH  062%=      5-min Rain = 0
KCA1 130806Z 13007KT M03/M10 A303 RMK A01 T10321095  RH  062%=      5-min Rain = 0
KCA1 130807Z 14007KT M03/M09 A303 RMK A01 T10311094  RH  062%=      5-min Rain = 0
KCA1 130808Z 14007KT M03/M09 A303 RMK A01 T10301093  RH  062%=      5-min Rain = 0
KCA1 130809Z 13007KT M03/M09 A303 RMK A01 T10301093  RH  062%=      5-min Rain = 0
KCA1 130810Z 13007KT M03/M09 A303 RMK A01 T10301094  RH  061%=      5-min Rain = 0
KCA1 130811Z 13006KT M03/M09 A303 RMK A01 T10301094  RH  061%=      5-min Rain = 0
KCA1 130812Z 14006KT M03/M09 A303 RMK A01 T10301093  RH  062%=      5-min Rain = 0
KCA1 130813Z 15007KT M03/M09 A303 RMK A01 T10301093  RH  062%=      5-min Rain = 0
KCA1 130814Z 14007KT M03/M09 A303 RMK A01 T10301093  RH  062%=      5-min Rain = 0
KCA1 130815Z 15007KT M03/M09 A303 RMK A01 T10301093  RH  062%=      5-min Rain = 0
KCA1 130816Z 15007KT M03/M09 A303 RMK A01 T10311094  RH  062%=      5-min Rain = 0
KCA1 130817Z 15008KT M03/M09 A303 RMK A01 T10321094  RH  062%=      5-min Rain = 0
KCA1 130818Z 15008KT M03/M09 A303 RMK A01 T10321094  RH  062%=      5-min Rain = 0
KCA1 130819Z 15008KT M03/M09 A303 RMK A01 T10331094  RH  063%=      5-min Rain = 0
KCA1 130820Z 15008KT M03/M09 A303 RMK A01 T10331094  RH  063%=      5-min Rain = 0
KCA1 130821Z 15008KT M03/M10 A303 RMK A01 T10341095  RH  063%=      5-min Rain = 0
KCA1 130822Z 15008KT M04/M10 A303 RMK A01 T10351095  RH  063%=      5-min Rain = 0
KCA1 130823Z 14008KT M04/M10 A303 RMK A01 T10361096  RH  063%=      5-min Rain = 0
KCA1 130824Z 14008KT M04/M10 A303 RMK A01 T10371096  RH  064%=      5-min Rain = 0
KCA1 130825Z 14008KT M04/M10 A303 RMK A01 T10371095  RH  064%=      5-min Rain = 0
KCA1 130826Z 14008KT M04/M10 A303 RMK A01 T10371095  RH  064%=      5-min Rain = 0
KCA1 130827Z 14008KT M04/M10 A303 RMK A01 T10371095  RH  064%=      5-min Rain = 0
KCA1 130828Z 15009KT M04/M10 A3029 RMK A01 T10371095  RH  064%=      5-min Rain = 0
KCA1 130829Z 15009KT M04/M10 A3029 RMK A01 T10371096  RH  064%=      5-min Rain = 0
KCA1 130830Z 15009KT M04/M10 A3029 RMK A01 T10381098  RH  063%=      5-min Rain = 0
KCA1 130831Z 15009KT M04/M10 A3029 RMK A01 T10391098  RH  064%=      5-min Rain = 0
KCA1 130832Z 15009KT M04/M10 A3029 RMK A01 T10391098  RH  064%=      5-min Rain = 0
KCA1 130833Z 15009KT M04/M10 A3029 RMK A01 T10401098  RH  064%=      5-min Rain = 0
KCA1 130834Z 14009KT M04/M10 A3029 RMK A01 T10401098  RH  064%=      5-min Rain = 0
KCA1 130835Z 15008KT M04/M10 A3029 RMK A01 T10411099  RH  064%=      5-min Rain = 0
KCA1 130836Z 15008KT M04/M10 A3029 RMK A01 T10411099  RH  064%=      5-min Rain = 0
KCA1 130837Z 15009KT M04/M10 A3029 RMK A01 T10411099  RH  064%=      5-min Rain = 0
KCA1 130838Z 15009KT M04/M10 A3029 RMK A01 T10421101  RH  064%=      5-min Rain = 0
KCA1 130839Z 15009KT M04/M10 A3028 RMK A01 T10441102  RH  064%=      5-min Rain = 0
KCA1 130840Z 15009KT M05/M10 A3028 RMK A01 T10451103  RH  064%=      5-min Rain = 0
KCA1 130841Z 15009KT M05/M10 A3028 RMK A01 T10461103  RH  064%=      5-min Rain = 0
KCA1 130842Z 15009KT M05/M10 A3028 RMK A01 T10471103  RH  065%=      5-min Rain = 0
KCA1 130843Z 15008KT M05/M10 A3028 RMK A01 T10481104  RH  065%=      5-min Rain = 0
KCA1 130844Z 14009KT M05/M10 A3028 RMK A01 T10481104  RH  065%=      5-min Rain = 0
KCA1 130845Z 14009KT M05/M10 A3028 RMK A01 T10491104  RH  065%=      5-min Rain = 0
KCA1 130846Z 15008KT M05/M10 A3028 RMK A01 T10491104  RH  066%=      5-min Rain = 0
KCA1 130847Z 15008KT M05/M10 A3028 RMK A01 T10491103  RH  066%=      5-min Rain = 0
KCA1 130848Z 14008KT M05/M10 A3028 RMK A01 T10491103  RH  066%=      5-min Rain = 0
KCA1 130849Z 14008KT M05/M10 A3028 RMK A01 T10491103  RH  066%=      5-min Rain = 0
KCA1 130850Z 14007KT M05/M10 A3028 RMK A01 T10491103  RH  066%=      5-min Rain = 0
KCA1 130851Z 15007KT M05/M10 A3028 RMK A01 T10501103  RH  066%=      5-min Rain = 0
KCA1 130852Z 14007KT M05/M10 A3028 RMK A01 T10501103  RH  066%=      5-min Rain = 0
KCA1 130853Z 14006KT M05/M10 A3028 RMK A01 T10501103  RH  066%=      5-min Rain = 0
KCA1 130854Z 14006KT M05/M10 A3028 RMK A01 T10511103  RH  067%=      5-min Rain = 0
KCA1 130855Z 14006KT M05/M10 A3028 RMK A01 T10521104  RH  067%=      5-min Rain = 0
KCA1 130856Z 14006KT M05/M10 A3028 RMK A01 T10531104  RH  067%=      5-min Rain = 0
KCA1 130857Z 14006KT M05/M10 A3028 RMK A01 T10531104  RH  067%=      5-min Rain = 0
KCA1 130858Z 13006KT M05/M10 A3028 RMK A01 T10531104  RH  068%=      5-min Rain = 0
KCA1 130859Z 13006KT M05/M10 A3028 RMK A01 T10541104  RH  068%=      5-min Rain = 0
KCA1 130900Z 13006KT M05/M10 A3028 RMK A01 T10541104  RH  068%=      5-min Rain = 0
KCA1 130901Z 13005KT M05/M10 A3028 RMK A01 T10541104  RH  068%=      5-min Rain = 0
KCA1 130902Z 13006KT M05/M10 A3028 RMK A01 T10541103  RH  068%=      5-min Rain = 0
KCA1 130903Z 13005KT M05/M10 A3028 RMK A01 T10541103  RH  069%=      5-min Rain = 0
KCA1 130904Z 13006KT M05/M10 A3028 RMK A01 T10541103  RH  069%=      5-min Rain = 0
KCA1 130905Z 13006KT M05/M10 A3028 RMK A01 T10541103  RH  069%=      5-min Rain = 0
KCA1 130906Z 13006KT M06/M10 A3028 RMK A01 T10551102  RH  069%=      5-min Rain = 0
KCA1 130907Z 13006KT M06/M10 A3028 RMK A01 T10551102  RH  069%=      5-min Rain = 0
KCA1 130908Z 14006KT M06/M10 A3028 RMK A01 T10551101  RH  070%=      5-min Rain = 0
KCA1 130909Z 14006KT M06/M10 A3028 RMK A01 T10551101  RH  070%=      5-min Rain = 0
KCA1 130910Z 13006KT M06/M10 A3028 RMK A01 T10551101  RH  070%=      5-min Rain = 0
KCA1 130911Z 14006KT M06/M10 A3028 RMK A01 T10551101  RH  070%=      5-min Rain = 0
KCA1 130912Z 14006KT M05/M10 A3028 RMK A01 T10541100  RH  070%=      5-min Rain = 0
KCA1 130913Z 13005KT M06/M10 A3028 RMK A01 T10551100  RH  070%=      5-min Rain = 0
KCA1 130914Z 13005KT M06/M10 A3028 RMK A01 T10551100  RH  071%=      5-min Rain = 0
KCA1 130915Z 14005KT M06/M10 A3028 RMK A01 T10551099  RH  071%=      5-min Rain = 0
KCA1 130916Z 14005KT M05/M10 A3028 RMK A01 T10541099  RH  071%=      5-min Rain = 0
KCA1 130917Z 13006KT M06/M10 A3028 RMK A01 T10551099  RH  071%=      5-min Rain = 0
KCA1 130918Z 14006KT M06/M10 A3028 RMK A01 T10551098  RH  072%=      5-min Rain = 0
KCA1 130919Z 14007KT M06/M10 A3028 RMK A01 T10551097  RH  072%=      5-min Rain = 0
KCA1 130920Z 14007KT M05/M10 A3028 RMK A01 T10531095  RH  072%=      5-min Rain = 0
KCA1 130921Z 14006KT M05/M09 A3028 RMK A01 T10521094  RH  072%=      5-min Rain = 0
KCA1 130922Z 14006KT M05/M09 A3028 RMK A01 T10511094  RH  072%=      5-min Rain = 0
KCA1 130923Z 14006KT M05/M09 A3028 RMK A01 T10511094  RH  072%=      5-min Rain = 0
KCA1 130924Z 14006KT M05/M09 A3028 RMK A01 T10511094  RH  072%=      5-min Rain = 0
KCA1 130925Z 14007KT M05/M09 A3027 RMK A01 T10501093  RH  072%=      5-min Rain = 0
KCA1 130926Z 14007KT M05/M09 A3027 RMK A01 T10501093  RH  072%=      5-min Rain = 0
KCA1 130927Z 14007KT M05/M09 A3027 RMK A01 T10501093  RH  072%=      5-min Rain = 0
KCA1 130928Z 14007KT M05/M09 A3027 RMK A01 T10501093  RH  072%=      5-min Rain = 0
KCA1 130929Z 13007KT M05/M09 A3027 RMK A01 T10501092  RH  072%=      5-min Rain = 0
KCA1 130930Z 13007KT M05/M09 A3027 RMK A01 T10491091  RH  072%=      5-min Rain = 0
KCA1 130931Z 13007KT M05/M09 A3027 RMK A01 T10491092  RH  072%=      5-min Rain = 0
KCA1 130932Z 13006KT M05/M09 A3027 RMK A01 T10491092  RH  072%=      5-min Rain = 0
KCA1 130933Z 13006KT M05/M09 A3027 RMK A01 T10491092  RH  072%=      5-min Rain = 0
KCA1 130934Z 13006KT M05/M09 A3027 RMK A01 T10491092  RH  072%=      5-min Rain = 0
KCA1 130935Z 13006KT M05/M09 A3027 RMK A01 T10491092  RH  072%=      5-min Rain = 0
KCA1 130936Z 13006KT M05/M09 A3027 RMK A01 T10481091  RH  072%=      5-min Rain = 0
KCA1 130937Z 13005KT M05/M09 A3027 RMK A01 T10491091  RH  072%=      5-min Rain = 0
KCA1 130938Z 12005KT M05/M09 A3027 RMK A01 T10491092  RH  072%=      5-min Rain = 0
KCA1 130939Z 12005KT M05/M09 A3027 RMK A01 T10491092  RH  072%=      5-min Rain = 0
KCA1 130940Z 12005KT M05/M09 A3027 RMK A01 T10511094  RH  072%=      5-min Rain = 0
KCA1 130941Z 12005KT M05/M10 A3027 RMK A01 T10521096  RH  071%=      5-min Rain = 0
KCA1 130942Z 12004KT M05/M10 A3027 RMK A01 T10531096  RH  072%=      5-min Rain = 0
KCA1 130943Z 12005KT M05/M10 A3027 RMK A01 T10541097  RH  072%=      5-min Rain = 0
KCA1 130944Z 12005KT M06/M10 A3027 RMK A01 T10551096  RH  072%=      5-min Rain = 0
KCA1 130945Z 12005KT M06/M10 A3027 RMK A01 T10551096  RH  073%=      5-min Rain = 0
KCA1 130946Z 12005KT M06/M10 A3027 RMK A01 T10551095  RH  073%=      5-min Rain = 0
KCA1 130947Z 13005KT M06/M09 A3027 RMK A01 T10551094  RH  074%=      5-min Rain = 0
KCA1 130948Z 13005KT M06/M09 A3027 RMK A01 T10551094  RH  074%=      5-min Rain = 0
KCA1 130949Z 13005KT M06/M09 A3027 RMK A01 T10551094  RH  074%=      5-min Rain = 0
KCA1 130950Z 13005KT M05/M09 A3027 RMK A01 T10541093  RH  074%=      5-min Rain = 0
KCA1 130951Z 13005KT M05/M09 A3027 RMK A01 T10531091  RH  075%=      5-min Rain = 0
KCA1 130952Z 13005KT M05/M09 A3027 RMK A01 T10531091  RH  075%=      5-min Rain = 0
KCA1 130953Z 12005KT M05/M09 A3027 RMK A01 T10531091  RH  075%=      5-min Rain = 0
KCA1 130954Z 13005KT M05/M09 A3027 RMK A01 T10531091  RH  075%=      5-min Rain = 0
KCA1 130955Z 13004KT M05/M09 A3027 RMK A01 T10521090  RH  075%=      5-min Rain = 0
KCA1 130956Z 13005KT M05/M09 A3027 RMK A01 T10511089  RH  075%=      5-min Rain = 0
KCA1 130957Z 13004KT M05/M09 A3027 RMK A01 T10511089  RH  075%=      5-min Rain = 0
KCA1 130958Z 13005KT M05/M09 A3027 RMK A01 T10511089  RH  075%=      5-min Rain = 0
KCA1 130959Z 12005KT M05/M09 A3027 RMK A01 T10511089  RH  075%=      5-min Rain = 0
KCA1 131000Z 12005KT M05/M09 A3027 RMK A01 T10501087  RH  075%=      5-min Rain = 0
KCA1 131001Z 12005KT M05/M09 A3027 RMK A01 T10491087  RH  075%=      5-min Rain = 0
KCA1 131002Z 12005KT M05/M09 A3027 RMK A01 T10491087  RH  075%=      5-min Rain = 0
KCA1 131003Z 12006KT M05/M09 A3027 RMK A01 T10491086  RH  075%=      5-min Rain = 0
KCA1 131004Z 13007KT M05/M08 A3027 RMK A01 T10481084  RH  075%=      5-min Rain = 0
KCA1 131005Z 12007KT M05/M08 A3027 RMK A01 T10461082  RH  076%=      5-min Rain = 0
KCA1 131006Z 11006KT M04/M08 A3027 RMK A01 T10441082  RH  075%=      5-min Rain = 0
KCA1 131007Z 11007KT M04/M08 A3027 RMK A01 T10441083  RH  075%=      5-min Rain = 0
KCA1 131008Z 11007KT M05/M08 A3027 RMK A01 T10451084  RH  074%=      5-min Rain = 0
KCA1 131009Z 11006KT M04/M08 A3027 RMK A01 T10441084  RH  074%=      5-min Rain = 0
KCA1 131010Z 11005KT M05/M09 A3028 RMK A01 T10451085  RH  074%=      5-min Rain = 0
KCA1 131011Z 11006KT M05/M09 A3028 RMK A01 T10471086  RH  074%=      5-min Rain = 0
KCA1 131012Z 11006KT M05/M09 A3028 RMK A01 T10471086  RH  074%=      5-min Rain = 0
KCA1 131013Z 11006KT M05/M09 A3028 RMK A01 T10471085  RH  075%=      5-min Rain = 0
KCA1 131014Z 11006KT M05/M08 A3027 RMK A01 T10471084  RH  075%=      5-min Rain = 0
KCA1 131015Z 11006KT M05/M08 A3027 RMK A01 T10471084  RH  075%=      5-min Rain = 0
KCA1 131016Z 11005KT M05/M08 A3027 RMK A01 T10461083  RH  075%=      5-min Rain = 0
KCA1 131017Z 11006KT M05/M08 A3027 RMK A01 T10461082  RH  076%=      5-min Rain = 0
KCA1 131018Z 11006KT M05/M08 A3027 RMK A01 T10451081  RH  076%=      5-min Rain = 0
KCA1 131019Z 11006KT M04/M08 A3027 RMK A01 T10431079  RH  076%=      5-min Rain = 0
KCA1 131020Z 11006KT M04/M08 A3027 RMK A01 T10431080  RH  075%=      5-min Rain = 0
KCA1 131021Z 11007KT M04/M08 A3027 RMK A01 T10431080  RH  075%=      5-min Rain = 0
KCA1 131022Z 11006KT M04/M08 A3027 RMK A01 T10421079  RH  076%=      5-min Rain = 0
KCA1 131023Z 11006KT M04/M08 A3027 RMK A01 T10421079  RH  075%=      5-min Rain = 0
KCA1 131024Z 12005KT M04/M08 A3027 RMK A01 T10421079  RH  075%=      5-min Rain = 0
KCA1 131025Z 11005KT M04/M08 A3027 RMK A01 T10421079  RH  075%=      5-min Rain = 0
KCA1 131026Z 12005KT M04/M08 A3027 RMK A01 T10421079  RH  075%=      5-min Rain = 0
KCA1 131027Z 12005KT M04/M08 A3027 RMK A01 T10421079  RH  076%=      5-min Rain = 0
KCA1 131028Z 11005KT M04/M08 A3027 RMK A01 T10421078  RH  076%=      5-min Rain = 0
KCA1 131029Z 12005KT M04/M08 A3027 RMK A01 T10421078  RH  076%=      5-min Rain = 0
KCA1 131030Z 12005KT M04/M08 A3027 RMK A01 T10411077  RH  076%=      5-min Rain = 0
KCA1 131031Z 12005KT M04/M08 A3027 RMK A01 T10411078  RH  076%=      5-min Rain = 0
KCA1 131032Z 12005KT M04/M08 A3027 RMK A01 T10421078  RH  076%=      5-min Rain = 0
KCA1 131033Z 12006KT M04/M08 A3027 RMK A01 T10421078  RH  076%=      5-min Rain = 0
KCA1 131034Z 13005KT M04/M08 A3027 RMK A01 T10421078  RH  076%=      5-min Rain = 0
KCA1 131035Z 13005KT M04/M08 A3027 RMK A01 T10421077  RH  076%=      5-min Rain = 0
KCA1 131036Z 13005KT M04/M08 A3027 RMK A01 T10421077  RH  076%=      5-min Rain = 0
KCA1 131037Z 13005KT M04/M08 A3027 RMK A01 T10421077  RH  076%=      5-min Rain = 0
KCA1 131038Z 13004KT M04/M08 A3027 RMK A01 T10421077  RH  076%=      5-min Rain = 0
KCA1 131039Z 13005KT M04/M08 A3027 RMK A01 T10421078  RH  076%=      5-min Rain = 0
KCA1 131040Z 13006KT M04/M08 A3027 RMK A01 T10431078  RH  076%=      5-min Rain = 0
KCA1 131041Z 14006KT M04/M08 A3027 RMK A01 T10431078  RH  077%=      5-min Rain = 0
KCA1 131042Z 15005KT M04/M08 A3027 RMK A01 T10431077  RH  077%=      5-min Rain = 0
KCA1 131043Z 15006KT M04/M08 A3027 RMK A01 T10431076  RH  078%=      5-min Rain = 0
KCA1 131044Z 15005KT M04/M08 A3027 RMK A01 T10421076  RH  078%=      5-min Rain = 0
KCA1 131045Z 16005KT M04/M08 A3027 RMK A01 T10421076  RH  078%=      5-min Rain = 0
KCA1 131046Z 16004KT M04/M08 A3027 RMK A01 T10431076  RH  078%=      5-min Rain = 0
KCA1 131047Z 16003KT M04/M08 A3027 RMK A01 T10431075  RH  078%=      5-min Rain = 0
KCA1 131048Z 15005KT M04/M07 A3027 RMK A01 T10431074  RH  079%=      5-min Rain = 0
KCA1 131049Z 15004KT M04/M07 A3027 RMK A01 T10421073  RH  079%=      5-min Rain = 0
KCA1 131050Z 16006KT M04/M07 A3027 RMK A01 T10411072  RH  079%=      5-min Rain = 0
KCA1 131051Z 16005KT M04/M07 A3027 RMK A01 T10401071  RH  079%=      5-min Rain = 0
KCA1 131052Z 16006KT M04/M07 A3027 RMK A01 T10381069  RH  079%=      5-min Rain = 0
KCA1 131053Z 14004KT M04/M07 A3027 RMK A01 T10371068  RH  079%=      5-min Rain = 0
KCA1 131054Z 15003KT M04/M07 A3027 RMK A01 T10361070  RH  078%=      5-min Rain = 0
KCA1 131055Z 17005KT M04/M07 A3027 RMK A01 T10371071  RH  077%=      5-min Rain = 0
KCA1 131056Z 15004KT M04/M07 A3027 RMK A01 T10371069  RH  078%=      5-min Rain = 0
KCA1 131057Z 15004KT M04/M07 A3027 RMK A01 T10361069  RH  078%=      5-min Rain = 0
KCA1 131058Z 15004KT M04/M07 A3027 RMK A01 T10361070  RH  078%=      5-min Rain = 0
KCA1 131059Z 16005KT M04/M07 A3027 RMK A01 T10361069  RH  078%=      5-min Rain = 0
KCA1 131100Z 16007KT M04/M07 A3027 RMK A01 T10361068  RH  078%=      5-min Rain = 0
KCA1 131101Z 17007KT M03/M07 A3027 RMK A01 T10341067  RH  078%=      5-min Rain = 0
KCA1 131102Z 16007KT M03/M07 A3027 RMK A01 T10331065  RH  078%=      5-min Rain = 0
KCA1 131103Z 17008KT M03/M06 A3027 RMK A01 T10321064  RH  078%=      5-min Rain = 0
KCA1 131104Z 16008KT M03/M06 A3027 RMK A01 T10311064  RH  078%=      5-min Rain = 0
KCA1 131105Z 16008KT M03/M07 A3027 RMK A01 T10311065  RH  077%=      5-min Rain = 0
KCA1 131106Z 17009KT M03/M07 A3027 RMK A01 T10301065  RH  077%=      5-min Rain = 0
KCA1 131107Z 16010KT M03/M06 A3027 RMK A01 T10301064  RH  077%=      5-min Rain = 0
KCA1 131108Z 16009KT M03/M06 A3027 RMK A01 T10291064  RH  077%=      5-min Rain = 0
KCA1 131109Z 16010KT M03/M07 A3027 RMK A01 T10291065  RH  077%=      5-min Rain = 0
KCA1 131110Z 17010KT M03/M07 A3027 RMK A01 T10291065  RH  076%=      5-min Rain = 0
KCA1 131111Z 16009KT M03/M07 A3027 RMK A01 T10291065  RH  076%=      5-min Rain = 0
KCA1 131112Z 17009KT M03/M07 A3027 RMK A01 T10291065  RH  076%=      5-min Rain = 0
KCA1 131113Z 17010KT M03/M07 A3027 RMK A01 T10291065  RH  076%=      5-min Rain = 0
KCA1 131114Z 16008KT M03/M07 A3027 RMK A01 T10291065  RH  076%=      5-min Rain = 0
KCA1 131115Z 16010KT M03/M07 A3027 RMK A01 T10301066  RH  076%=      5-min Rain = 0
KCA1 131116Z 17010KT M03/M07 A3027 RMK A01 T10301066  RH  076%=      5-min Rain = 0
KCA1 131117Z 17010KT M03/M07 A3027 RMK A01 T10301066  RH  076%=      5-min Rain = 0
KCA1 131118Z 16011KT M03/M07 A3027 RMK A01 T10301066  RH  076%=      5-min Rain = 0
KCA1 131119Z 17010KT M03/M07 A3027 RMK A01 T10301066  RH  076%=      5-min Rain = 0
KCA1 131120Z 17010KT M03/M07 A3027 RMK A01 T10291066  RH  076%=      5-min Rain = 0
KCA1 131121Z 17010KT M03/M07 A3027 RMK A01 T10301066  RH  076%=      5-min Rain = 0
KCA1 131122Z 17010KT M03/M07 A3027 RMK A01 T10301067  RH  076%=      5-min Rain = 0
KCA1 131123Z 17011KT M03/M07 A3027 RMK A01 T10311067  RH  076%=      5-min Rain = 0
KCA1 131124Z 17010KT M03/M07 A3027 RMK A01 T10311067  RH  076%=      5-min Rain = 0
KCA1 131125Z 16010KT M03/M07 A3027 RMK A01 T10311066  RH  076%=      5-min Rain = 0
KCA1 131126Z 17009KT M03/M07 A3027 RMK A01 T10311067  RH  077%=      5-min Rain = 0
KCA1 131127Z 17010KT M03/M07 A3027 RMK A01 T10321067  RH  077%=      5-min Rain = 0
KCA1 131128Z 17010KT M03/M07 A3027 RMK A01 T10321067  RH  077%=      5-min Rain = 0
KCA1 131129Z 17009KT M03/M07 A3027 RMK A01 T10321066  RH  077%=      5-min Rain = 0
KCA1 131130Z 17009KT M03/M07 A3027 RMK A01 T10321066  RH  078%=      5-min Rain = 0
KCA1 131131Z 17009KT M03/M07 A3027 RMK A01 T10321066  RH  078%=      5-min Rain = 0
KCA1 131132Z 17009KT M03/M07 A3026 RMK A01 T10331066  RH  078%=      5-min Rain = 0
KCA1 131133Z 17008KT M03/M07 A3027 RMK A01 T10321065  RH  078%=      5-min Rain = 0
KCA1 131134Z 17009KT M03/M07 A3027 RMK A01 T10331066  RH  078%=      5-min Rain = 0
KCA1 131135Z 17008KT M03/M07 A3027 RMK A01 T10331066  RH  078%=      5-min Rain = 0
KCA1 131136Z 17009KT M03/M07 A3027 RMK A01 T10331065  RH  078%=      5-min Rain = 0
KCA1 131137Z 17009KT M03/M07 A3027 RMK A01 T10341066  RH  078%=      5-min Rain = 0
KCA1 131138Z 17010KT M03/M07 A3027 RMK A01 T10341066  RH  078%=      5-min Rain = 0
KCA1 131139Z 17010KT M03/M07 A3027 RMK A01 T10341066  RH  079%=      5-min Rain = 0
KCA1 131140Z 18009KT M03/M07 A3027 RMK A01 T10341066  RH  079%=      5-min Rain = 0
KCA1 131141Z 17009KT M03/M07 A3027 RMK A01 T10341066  RH  079%=      5-min Rain = 0
KCA1 131142Z 18008KT M03/M07 A3027 RMK A01 T10341066  RH  079%=      5-min Rain = 0
KCA1 131143Z 18009KT M04/M07 A3027 RMK A01 T10351067  RH  079%=      5-min Rain = 0
KCA1 131144Z 18009KT M04/M07 A3027 RMK A01 T10361067  RH  079%=      5-min Rain = 0
KCA1 131145Z 18010KT M04/M07 A3027 RMK A01 T10361067  RH  079%=      5-min Rain = 0
KCA1 131146Z 18010KT M04/M07 A3027 RMK A01 T10361067  RH  079%=      5-min Rain = 0
KCA1 131147Z 18010KT M04/M07 A3027 RMK A01 T10361067  RH  079%=      5-min Rain = 0
KCA1 131148Z 18011KT M04/M07 A3027 RMK A01 T10371068  RH  079%=      5-min Rain = 0
KCA1 131149Z 18011KT M04/M07 A3027 RMK A01 T10371067  RH  079%=      5-min Rain = 0
KCA1 131150Z 17011KT M04/M07 A3027 RMK A01 T10371067  RH  080%=      5-min Rain = 0
KCA1 131151Z 18010KT M04/M07 A3027 RMK A01 T10371067  RH  079%=      5-min Rain = 0
KCA1 131152Z 18011KT M04/M07 A3027 RMK A01 T10361067  RH  080%=      5-min Rain = 0
KCA1 131153Z 18011KT M04/M07 A3027 RMK A01 T10361066  RH  080%=      5-min Rain = 0
KCA1 131154Z 18011KT M04/M07 A3027 RMK A01 T10361066  RH  080%=      5-min Rain = 0
KCA1 131155Z 18011KT M04/M07 A3027 RMK A01 T10351066  RH  080%=      5-min Rain = 0
KCA1 131156Z 18010KT M04/M07 A3027 RMK A01 T10351066  RH  079%=      5-min Rain = 0
KCA1 131157Z 18011KT M04/M07 A3027 RMK A01 T10351065  RH  079%=      5-min Rain = 0
KCA1 131158Z 18010KT M04/M07 A3027 RMK A01 T10351066  RH  080%=      5-min Rain = 0
KCA1 131159Z 18009G14KT M04/M07 A3028 RMK A01 T10351065  RH  080%=      5-min Rain = 0
KCA1 131200Z 18010KT M04/M07 A3028 RMK A01 T10351066  RH  079%=      5-min Rain = 0
KCA1 131201Z 18010KT M04/M07 A3028 RMK A01 T10351066  RH  079%=      5-min Rain = 0
KCA1 131202Z 18010KT M04/M07 A3028 RMK A01 T10351065  RH  080%=      5-min Rain = 0
KCA1 131203Z 18010KT M04/M07 A3028 RMK A01 T10351065  RH  080%=      5-min Rain = 0
KCA1 131204Z 18010KT M04/M07 A3028 RMK A01 T10351065  RH  080%=      5-min Rain = 0
KCA1 131205Z 18010KT M04/M07 A3028 RMK A01 T10351065  RH  079%=      5-min Rain = 0
KCA1 131206Z 18010KT M04/M07 A3028 RMK A01 T10351065  RH  079%=      5-min Rain = 0
KCA1 131207Z 18009KT M04/M07 A3028 RMK A01 T10351065  RH  080%=      5-min Rain = 0
KCA1 131208Z 18009KT M04/M07 A3028 RMK A01 T10351065  RH  080%=      5-min Rain = 0
KCA1 131209Z 18008KT M04/M07 A3028 RMK A01 T10351066  RH  079%=      5-min Rain = 0
KCA1 131210Z 18010KT M04/M07 A3028 RMK A01 T10361066  RH  080%=      5-min Rain = 0
KCA1 131211Z 18008KT M04/M07 A3028 RMK A01 T10351065  RH  080%=      5-min Rain = 0
KCA1 131212Z 18008KT M04/M07 A3028 RMK A01 T10361065  RH  080%=      5-min Rain = 0
KCA1 131213Z 18007KT M04/M07 A3028 RMK A01 T10361065  RH  080%=      5-min Rain = 0
KCA1 131214Z 19007KT M04/M07 A3028 RMK A01 T10351065  RH  080%=      5-min Rain = 0
KCA1 131215Z 19008KT M04/M07 A3028 RMK A01 T10351065  RH  080%=      5-min Rain = 0
KCA1 131216Z 19008KT M04/M07 A3028 RMK A01 T10351065  RH  080%=      5-min Rain = 0
KCA1 131217Z 18007KT M04/M07 A3028 RMK A01 T10361065  RH  080%=      5-min Rain = 0
KCA1 131218Z 18008KT M04/M07 A3027 RMK A01 T10351065  RH  080%=      5-min Rain = 0
KCA1 131219Z 18009KT M04/M07 A3027 RMK A01 T10361065  RH  080%=      5-min Rain = 0
KCA1 131220Z 18009KT M04/M06 A3027 RMK A01 T10361064  RH  080%=      5-min Rain = 0
KCA1 131221Z 18008KT M04/M06 A3027 RMK A01 T10351064  RH  081%=      5-min Rain = 0
KCA1 131222Z 18009KT M03/M06 A3027 RMK A01 T10341063  RH  081%=      5-min Rain = 0
KCA1 131223Z 18009KT M03/M06 A3027 RMK A01 T10331062  RH  080%=      5-min Rain = 0
KCA1 131224Z 18009KT M03/M06 A3027 RMK A01 T10321062  RH  080%=      5-min Rain = 0
KCA1 131225Z 19009KT M03/M06 A3027 RMK A01 T10321062  RH  080%=      5-min Rain = 0
KCA1 131226Z 19007KT M03/M06 A3027 RMK A01 T10311062  RH  079%=      5-min Rain = 0
KCA1 131227Z 19007KT M03/M06 A3027 RMK A01 T10321063  RH  079%=      5-min Rain = 0
KCA1 131228Z 19007KT M03/M06 A3027 RMK A01 T10331064  RH  079%=      5-min Rain = 0
KCA1 131229Z 19007KT M03/M06 A3027 RMK A01 T10331064  RH  079%=      5-min Rain = 0
KCA1 131230Z 18006G11KT M03/M06 A3027 RMK A01 T10331063  RH  080%=      5-min Rain = 0
KCA1 131231Z 19008KT M03/M06 A3027 RMK A01 T10341064  RH  080%=      5-min Rain = 0
KCA1 131232Z 18008KT M03/M06 A3027 RMK A01 T10341063  RH  080%=      5-min Rain = 0
KCA1 131233Z 19010KT M03/M06 A3027 RMK A01 T10331062  RH  080%=      5-min Rain = 0
KCA1 131234Z 19010KT M03/M06 A3027 RMK A01 T10321061  RH  080%=      5-min Rain = 0
KCA1 131235Z 18009KT M03/M06 A3027 RMK A01 T10311060  RH  080%=      5-min Rain = 0
KCA1 131236Z 19010KT M03/M06 A3027 RMK A01 T10301060  RH  080%=      5-min Rain = 0
KCA1 131237Z 19009KT M03/M06 A3027 RMK A01 T10301060  RH  079%=      5-min Rain = 0
KCA1 131238Z 19010KT M03/M06 A3027 RMK A01 T10301061  RH  079%=      5-min Rain = 0
KCA1 131239Z 19011KT M03/M06 A3027 RMK A01 T10291060  RH  079%=      5-min Rain = 0
KCA1 131240Z 19008KT M03/M06 A3027 RMK A01 T10281059  RH  079%=      5-min Rain = 0
KCA1 131241Z 19010KT M03/M06 A3027 RMK A01 T10281060  RH  079%=      5-min Rain = 0
KCA1 131242Z 19010KT M03/M06 A3027 RMK A01 T10291061  RH  078%=      5-min Rain = 0
KCA1 131243Z 19009KT M03/M06 A3027 RMK A01 T10291061  RH  079%=      5-min Rain = 0
KCA1 131244Z 19007KT M03/M06 A3027 RMK A01 T10291061  RH  079%=      5-min Rain = 0
KCA1 131245Z 20009KT M03/M06 A3027 RMK A01 T10301062  RH  079%=      5-min Rain = 0
KCA1 131246Z 19007KT M03/M06 A3027 RMK A01 T10311063  RH  079%=      5-min Rain = 0
KCA1 131247Z 19007KT M03/M06 A3027 RMK A01 T10311062  RH  079%=      5-min Rain = 0
KCA1 131248Z 19008KT M03/M06 A3027 RMK A01 T10311062  RH  080%=      5-min Rain = 0
KCA1 131249Z 18008KT M03/M06 A3027 RMK A01 T10311062  RH  080%=      5-min Rain = 0
KCA1 131250Z 18008KT M03/M06 A3027 RMK A01 T10321062  RH  080%=      5-min Rain = 0
KCA1 131251Z 19006KT M03/M06 A3027 RMK A01 T10311060  RH  080%=      5-min Rain = 0
KCA1 131252Z 19008KT M03/M06 A3027 RMK A01 T10311062  RH  080%=      5-min Rain = 0
KCA1 131253Z 18007KT M03/M06 A3027 RMK A01 T10321062  RH  080%=      5-min Rain = 0
KCA1 131254Z 18007KT M03/M06 A3027 RMK A01 T10311061  RH  080%=      5-min Rain = 0
KCA1 131255Z 18005KT M03/M06 A3027 RMK A01 T10311062  RH  080%=      5-min Rain = 0
KCA1 131256Z 19007KT M03/M06 A3027 RMK A01 T10321063  RH  080%=      5-min Rain = 0
KCA1 131257Z 18006KT M03/M06 A3027 RMK A01 T10331062  RH  080%=      5-min Rain = 0
KCA1 131258Z 19006KT M03/M06 A3027 RMK A01 T10331063  RH  080%=      5-min Rain = 0
KCA1 131259Z 19006KT M03/M06 A3027 RMK A01 T10341063  RH  080%=      5-min Rain = 0
KCA1 131300Z 18005KT M03/M06 A3027 RMK A01 T10341063  RH  080%=      5-min Rain = 0
KCA1 131301Z 18006KT M03/M06 A3027 RMK A01 T10341063  RH  080%=      5-min Rain = 0
KCA1 131302Z 18006KT M04/M06 A3027 RMK A01 T10351063  RH  081%=      5-min Rain = 0
KCA1 131303Z 18005KT M04/M06 A3027 RMK A01 T10351063  RH  081%=      5-min Rain = 0
KCA1 131304Z 19004KT M04/M06 A3027 RMK A01 T10351063  RH  081%=      5-min Rain = 0
KCA1 131305Z 19004KT M04/M06 A3027 RMK A01 T10351064  RH  081%=      5-min Rain = 0
KCA1 131306Z 18004KT M04/M06 A3028 RMK A01 T10361064  RH  081%=      5-min Rain = 0
KCA1 131307Z 19003KT M04/M06 A3028 RMK A01 T10361064  RH  081%=      5-min Rain = 0
KCA1 131308Z 19004KT M04/M07 A3028 RMK A01 T10371065  RH  081%=      5-min Rain = 0
KCA1 131309Z 18003KT M04/M07 A3028 RMK A01 T10371065  RH  081%=      5-min Rain = 0
KCA1 131310Z 18003KT M04/M07 A3028 RMK A01 T10381065  RH  081%=      5-min Rain = 0
KCA1 131311Z 19003KT M04/M07 A3028 RMK A01 T10391066  RH  082%=      5-min Rain = 0
KCA1 131312Z 19003KT M04/M07 A3028 RMK A01 T10391065  RH  082%=      5-min Rain = 0
KCA1 131313Z 19002KT M04/M07 A3028 RMK A01 T10401066  RH  082%=      5-min Rain = 0
KCA1 131314Z 18001KT M04/M07 A3028 RMK A01 T10401066  RH  082%=      5-min Rain = 0
KCA1 131315Z 16001KT M04/M07 A3028 RMK A01 T10411067  RH  082%=      5-min Rain = 0
KCA1 131316Z 12001KT M04/M07 A3028 RMK A01 T10421067  RH  082%=      5-min Rain = 0
KCA1 131317Z 13001KT M04/M07 A3028 RMK A01 T10421067  RH  083%=      5-min Rain = 0
KCA1 131318Z 16002KT M04/M07 A3028 RMK A01 T10431067  RH  083%=      5-min Rain = 0
KCA1 131319Z 18002KT M04/M07 A3028 RMK A01 T10431067  RH  083%=      5-min Rain = 0
KCA1 131320Z 16002KT M04/M07 A3028 RMK A01 T10431066  RH  084%=      5-min Rain = 0
KCA1 131321Z 18002KT M04/M07 A3028 RMK A01 T10431068  RH  083%=      5-min Rain = 0
KCA1 131322Z 17002KT M04/M07 A3028 RMK A01 T10441068  RH  083%=      5-min Rain = 0
KCA1 131323Z 18004KT M05/M07 A3028 RMK A01 T10451069  RH  083%=      5-min Rain = 0
KCA1 131324Z 19002KT M04/M07 A3028 RMK A01 T10441066  RH  084%=      5-min Rain = 0
KCA1 131325Z 18002KT M04/M07 A3028 RMK A01 T10431066  RH  084%=      5-min Rain = 0
KCA1 131326Z 18003KT M04/M07 A3028 RMK A01 T10431066  RH  084%=      5-min Rain = 0
KCA1 131327Z 19004KT M04/M07 A3028 RMK A01 T10431066  RH  084%=      5-min Rain = 0
KCA1 131328Z 19005KT M04/M07 A3028 RMK A01 T10421065  RH  084%=      5-min Rain = 0
KCA1 131329Z 18005KT M04/M06 A3028 RMK A01 T10411064  RH  084%=      5-min Rain = 0
KCA1 131330Z 18004KT M04/M06 A3029 RMK A01 T10391062  RH  084%=      5-min Rain = 0
KCA1 131331Z 18005KT M04/M06 A3029 RMK A01 T10391063  RH  084%=      5-min Rain = 0
KCA1 131332Z 18004KT M04/M06 A3029 RMK A01 T10391063  RH  083%=      5-min Rain = 0
KCA1 131333Z 17005KT M04/M06 A3029 RMK A01 T10391064  RH  083%=      5-min Rain = 0
KCA1 131334Z 17005KT M04/M07 A3028 RMK A01 T10401065  RH  082%=      5-min Rain = 0
KCA1 131335Z 17006KT M04/M07 A3028 RMK A01 T10401066  RH  083%=      5-min Rain = 0
KCA1 131336Z 17005KT M04/M07 A3028 RMK A01 T10411066  RH  083%=      5-min Rain = 0
KCA1 131337Z 16004KT M04/M07 A3028 RMK A01 T10411066  RH  083%=      5-min Rain = 0
KCA1 131338Z 16004KT M04/M07 A3028 RMK A01 T10411065  RH  084%=      5-min Rain = 0
KCA1 131339Z 16005KT M04/M07 A3028 RMK A01 T10421066  RH  084%=      5-min Rain = 0
KCA1 131340Z 15004KT M04/M07 A3028 RMK A01 T10421066  RH  084%=      5-min Rain = 0
KCA1 131341Z 16006KT M04/M07 A3028 RMK A01 T10421066  RH  084%=      5-min Rain = 0
KCA1 131342Z 16006KT M04/M06 A3028 RMK A01 T10411063  RH  085%=      5-min Rain = 0
KCA1 131343Z 16006KT M04/M06 A3028 RMK A01 T10401063  RH  084%=      5-min Rain = 0
KCA1 131344Z 15005KT M04/M07 A3028 RMK A01 T10401065  RH  083%=      5-min Rain = 0
KCA1 131345Z 16006KT M04/M07 A3028 RMK A01 T10411065  RH  083%=      5-min Rain = 0
KCA1 131346Z 15006KT M04/M07 A3028 RMK A01 T10411065  RH  083%=      5-min Rain = 0
KCA1 131347Z 16006KT M04/M07 A3028 RMK A01 T10411066  RH  083%=      5-min Rain = 0
KCA1 131348Z 15006KT M04/M07 A3028 RMK A01 T10421066  RH  083%=      5-min Rain = 0
KCA1 131349Z 15006KT M04/M07 A3028 RMK A01 T10421066  RH  084%=      5-min Rain = 0
KCA1 131350Z 16006KT M04/M07 A3028 RMK A01 T10421066  RH  084%=      5-min Rain = 0
KCA1 131351Z 15006KT M04/M07 A3028 RMK A01 T10421065  RH  084%=      5-min Rain = 0
KCA1 131352Z 16007KT M04/M07 A3028 RMK A01 T10411065  RH  084%=      5-min Rain = 0
KCA1 131353Z 16008KT M04/M06 A3028 RMK A01 T10401063  RH  084%=      5-min Rain = 0
KCA1 131354Z 16008KT M04/M06 A3028 RMK A01 T10381062  RH  084%=      5-min Rain = 0
KCA1 131355Z 16008KT M04/M06 A3028 RMK A01 T10371062  RH  083%=      5-min Rain = 0
KCA1 131356Z 16007KT M04/M06 A3028 RMK A01 T10371062  RH  083%=      5-min Rain = 0
KCA1 131357Z 17006KT M04/M06 A3028 RMK A01 T10371063  RH  082%=      5-min Rain = 0
KCA1 131358Z 17006KT M04/M06 A3028 RMK A01 T10361062  RH  082%=      5-min Rain = 0
KCA1 131359Z 17006KT M04/M06 A3028 RMK A01 T10351062  RH  082%=      5-min Rain = 0
KCA1 131400Z 18006KT M04/M06 A3029 RMK A01 T10351062  RH  082%=      5-min Rain = 0
KCA1 131401Z 18005KT M04/M06 A3029 RMK A01 T10351062  RH  081%=      5-min Rain = 0
KCA1 131402Z 19006KT M04/M06 A3029 RMK A01 T10351062  RH  082%=      5-min Rain = 0
KCA1 131403Z 18005KT M04/M06 A3029 RMK A01 T10351061  RH  082%=      5-min Rain = 0
KCA1 131404Z 18005KT M03/M06 A3029 RMK A01 T10331060  RH  082%=      5-min Rain = 0
KCA1 131405Z 18005KT M03/M06 A3029 RMK A01 T10331059  RH  082%=      5-min Rain = 0
KCA1 131406Z 18006KT M03/M06 A3029 RMK A01 T10311058  RH  082%=      5-min Rain = 0
KCA1 131407Z 18008KT M03/M06 A3029 RMK A01 T10291056  RH  082%=      5-min Rain = 0
KCA1 131408Z 18008KT M03/M06 A3029 RMK A01 T10271055  RH  082%=      5-min Rain = 0
KCA1 131409Z 18008KT M03/M05 A3029 RMK A01 T10251053  RH  081%=      5-min Rain = 0
KCA1 131410Z 18009KT M02/M05 A3029 RMK A01 T10241053  RH  080%=      5-min Rain = 0
KCA1 131411Z 18010KT M02/M05 A3029 RMK A01 T10221052  RH  080%=      5-min Rain = 0
KCA1 131412Z 18009KT M02/M05 A3029 RMK A01 T10211052  RH  079%=      5-min Rain = 0
KCA1 131413Z 18009KT M02/M05 A3029 RMK A01 T10191051  RH  079%=      5-min Rain = 0
KCA1 131414Z 18008KT M02/M05 A3029 RMK A01 T10181051  RH  078%=      5-min Rain = 0
KCA1 131415Z 18009KT M02/M05 A3029 RMK A01 T10171051  RH  078%=      5-min Rain = 0
KCA1 131416Z 19010KT M02/M05 A3029 RMK A01 T10171051  RH  077%=      5-min Rain = 0
KCA1 131417Z 19008KT M02/M05 A3029 RMK A01 T10161051  RH  077%=      5-min Rain = 0
KCA1 131418Z 19011KT M02/M05 A3029 RMK A01 T10151051  RH  077%=      5-min Rain = 0
KCA1 131419Z 18009KT M01/M05 A3029 RMK A01 T10141050  RH  076%=      5-min Rain = 0
KCA1 131420Z 18010KT M01/M05 A3029 RMK A01 T10141051  RH  076%=      5-min Rain = 0
KCA1 131421Z 19011KT M01/M05 A3029 RMK A01 T10131050  RH  076%=      5-min Rain = 0
KCA1 131422Z 19011KT M01/M05 A3029 RMK A01 T10121050  RH  075%=      5-min Rain = 0
KCA1 131423Z 19010KT M01/M05 A3029 RMK A01 T10121050  RH  075%=      5-min Rain = 0
KCA1 131424Z 18010KT M01/M05 A3029 RMK A01 T10111050  RH  075%=      5-min Rain = 0
KCA1 131425Z 18010KT M01/M05 A3029 RMK A01 T10101049  RH  075%=      5-min Rain = 0
KCA1 131426Z 19012KT M01/M05 A3029 RMK A01 T10091049  RH  074%=      5-min Rain = 0
KCA1 131427Z 18011KT M01/M05 A3029 RMK A01 T10091049  RH  074%=      5-min Rain = 0
KCA1 131428Z 18011KT M01/M05 A3029 RMK A01 T10091049  RH  074%=      5-min Rain = 0
KCA1 131429Z 19008KT M01/M05 A3029 RMK A01 T10091049  RH  074%=      5-min Rain = 0
KCA1 131430Z 19007KT M01/M05 A303 RMK A01 T10071048  RH  074%=      5-min Rain = 0
KCA1 131431Z 18009KT M01/M05 A3029 RMK A01 T10061047  RH  074%=      5-min Rain = 0
KCA1 131432Z 17010KT M01/M05 A3029 RMK A01 T10051047  RH  073%=      5-min Rain = 0
KCA1 131433Z 18009KT M01/M05 A3029 RMK A01 T10051048  RH  073%=      5-min Rain = 0
KCA1 131434Z 17009KT M01/M05 A3029 RMK A01 T10051048  RH  073%=      5-min Rain = 0
KCA1 131435Z 18008KT M01/M05 A3029 RMK A01 T10051047  RH  073%=      5-min Rain = 0
KCA1 131436Z 18007KT M00/M05 A3029 RMK A01 T10031046  RH  073%=      5-min Rain = 0
KCA1 131437Z 19007KT M00/M05 A3029 RMK A01 T10021046  RH  072%=      5-min Rain = 0
KCA1 131438Z 18006KT M00/M05 A3029 RMK A01 T10021047  RH  072%=      5-min Rain = 0
KCA1 131439Z 19007KT M00/M05 A3029 RMK A01 T10021046  RH  072%=      5-min Rain = 0
KCA1 131440Z 19006KT M00/M05 A3029 RMK A01 T10011046  RH  072%=      5-min Rain = 0
KCA1 131441Z 18007KT 00/05 A3029 RMK A01 T00-00-45  RH  072%=      5-min Rain = 0
KCA1 131442Z 18008KT 00/05 A3029 RMK A01 T00-00-45  RH  072%=      5-min Rain = 0
KCA1 131443Z 18009KT 00/M05 A3029 RMK A01 T00011045  RH  071%=      5-min Rain = 0
KCA1 131444Z 19009KT 00/M04 A3029 RMK A01 T00011044  RH  071%=      5-min Rain = 0
KCA1 131445Z 19006KT 00/M04 A303 RMK A01 T00011044  RH  071%=      5-min Rain = 0
KCA1 131446Z 19006KT 00/M04 A303 RMK A01 T00011044  RH  072%=      5-min Rain = 0
KCA1 131447Z 18006KT 00/M04 A303 RMK A01 T00021043  RH  072%=      5-min Rain = 0
KCA1 131448Z 18005KT 00/M04 A303 RMK A01 T00031042  RH  072%=      5-min Rain = 0
KCA1 131449Z 19005KT 00/M04 A303 RMK A01 T00031042  RH  071%=      5-min Rain = 0
KCA1 131450Z 19007KT 00/M04 A303 RMK A01 T00041042  RH  071%=      5-min Rain = 0
KCA1 131451Z 19006KT 01/M04 A303 RMK A01 T00051041  RH  071%=      5-min Rain = 0
KCA1 131452Z 20007KT 01/M04 A303 RMK A01 T00061041  RH  071%=      5-min Rain = 0
KCA1 131453Z 19005KT 01/M04 A303 RMK A01 T00071040  RH  071%=      5-min Rain = 0
KCA1 131454Z 20007KT 01/M04 A303 RMK A01 T00091039  RH  070%=      5-min Rain = 0
KCA1 131455Z 19007KT 01/M04 A303 RMK A01 T00091039  RH  070%=      5-min Rain = 0
KCA1 131456Z 19008KT 01/M04 A303 RMK A01 T00101039  RH  070%=      5-min Rain = 0
KCA1 131457Z 20008KT 01/M04 A303 RMK A01 T00111038  RH  070%=      5-min Rain = 0
KCA1 131458Z 19008KT 01/M04 A303 RMK A01 T00121038  RH  069%=      5-min Rain = 0
KCA1 131459Z 19009KT 01/M04 A303 RMK A01 T00131037  RH  069%=      5-min Rain = 0
KCA1 131500Z 19007KT 01/M04 A303 RMK A01 T00141036  RH  069%=      5-min Rain = 0
KCA1 131501Z 19007KT 02/M04 A303 RMK A01 T00151036  RH  069%=      5-min Rain = 0
KCA1 131502Z 19010KT 02/M04 A303 RMK A01 T00161035  RH  069%=      5-min Rain = 0
KCA1 131503Z 19013KT 02/M03 A303 RMK A01 T00181034  RH  068%=      5-min Rain = 0
KCA1 131504Z 20012KT 02/M04 A303 RMK A01 T00181035  RH  068%=      5-min Rain = 0
KCA1 131505Z 19010KT 02/M04 A303 RMK A01 T00181035  RH  068%=      5-min Rain = 0
KCA1 131506Z 19010KT 02/M03 A303 RMK A01 T00181034  RH  068%=      5-min Rain = 0
KCA1 131507Z 18009KT 02/M03 A303 RMK A01 T00201034  RH  068%=      5-min Rain = 0
KCA1 131508Z 17011KT 02/M03 A303 RMK A01 T00211033  RH  068%=      5-min Rain = 0
KCA1 131509Z 18009KT 02/M03 A303 RMK A01 T00211034  RH  067%=      5-min Rain = 0
KCA1 131510Z 17011G16KT 02/M03 A303 RMK A01 T00221034  RH  067%=      5-min Rain = 0
KCA1 131511Z 18013KT 02/M03 A303 RMK A01 T00221034  RH  067%=      5-min Rain = 0
KCA1 131512Z 17014KT 02/M04 A303 RMK A01 T00221035  RH  066%=      5-min Rain = 0
KCA1 131513Z 18014KT 02/M03 A303 RMK A01 T00211034  RH  067%=      5-min Rain = 0
KCA1 131514Z 18014KT 02/M03 A303 RMK A01 T00211034  RH  067%=      5-min Rain = 0
KCA1 131515Z 18014KT 02/M03 A303 RMK A01 T00211034  RH  067%=      5-min Rain = 0
KCA1 131516Z 18015KT 02/M03 A303 RMK A01 T00211034  RH  067%=      5-min Rain = 0
KCA1 131517Z 18014KT 02/M04 A303 RMK A01 T00211035  RH  066%=      5-min Rain = 0
KCA1 131518Z 18012KT 02/M03 A303 RMK A01 T00211034  RH  067%=      5-min Rain = 0
KCA1 131519Z 18013KT 02/M03 A303 RMK A01 T00221034  RH  066%=      5-min Rain = 0
KCA1 131520Z 18014KT 02/M03 A303 RMK A01 T00231034  RH  066%=      5-min Rain = 0
KCA1 131521Z 18013KT 02/M03 A303 RMK A01 T00241034  RH  066%=      5-min Rain = 0
KCA1 131522Z 18011KT 03/M03 A303 RMK A01 T00251033  RH  066%=      5-min Rain = 0
KCA1 131523Z 18012KT 03/M03 A303 RMK A01 T00271032  RH  065%=      5-min Rain = 0
KCA1 131524Z 17012KT 03/M03 A303 RMK A01 T00281032  RH  065%=      5-min Rain = 0
KCA1 131525Z 18011G16KT 03/M03 A303 RMK A01 T00281033  RH  064%=      5-min Rain = 0
KCA1 131526Z 18012KT 03/M03 A3029 RMK A01 T00281033  RH  064%=      5-min Rain = 0
KCA1 131527Z 18011KT 03/M03 A3029 RMK A01 T00291032  RH  064%=      5-min Rain = 0
KCA1 131528Z 18011KT 03/M03 A3029 RMK A01 T00311032  RH  064%=      5-min Rain = 0
KCA1 131529Z 18014KT 03/M03 A3029 RMK A01 T00331031  RH  063%=      5-min Rain = 0
KCA1 131530Z 18016KT 03/M03 A3029 RMK A01 T00341032  RH  062%=      5-min Rain = 0
KCA1 131531Z 17016KT 03/M03 A3029 RMK A01 T00331033  RH  062%=      5-min Rain = 0
KCA1 131532Z 18015KT 03/M03 A3029 RMK A01 T00311034  RH  062%=      5-min Rain = 0
KCA1 131533Z 18013KT 03/M03 A303 RMK A01 T00301034  RH  063%=      5-min Rain = 0
KCA1 131534Z 18015KT 03/M03 A303 RMK A01 T00301034  RH  063%=      5-min Rain = 0
KCA1 131535Z 17014KT 03/M03 A303 RMK A01 T00301034  RH  063%=      5-min Rain = 0
KCA1 131536Z 18014KT 03/M03 A303 RMK A01 T00301033  RH  063%=      5-min Rain = 0
KCA1 131537Z 17014KT 03/M03 A303 RMK A01 T00301033  RH  063%=      5-min Rain = 0
KCA1 131538Z 17016KT 03/M03 A303 RMK A01 T00321032  RH  063%=      5-min Rain = 0
KCA1 131539Z 17015KT 03/M03 A303 RMK A01 T00321033  RH  063%=      5-min Rain = 0
KCA1 131540Z 18014KT 03/M03 A303 RMK A01 T00331032  RH  062%=      5-min Rain = 0
KCA1 131541Z 18014KT 03/M03 A303 RMK A01 T00331032  RH  062%=      5-min Rain = 0
KCA1 131542Z 18016KT 03/M03 A303 RMK A01 T00341032  RH  062%=      5-min Rain = 0
KCA1 131543Z 18015KT 03/M03 A303 RMK A01 T00341033  RH  061%=      5-min Rain = 0
KCA1 131544Z 17015KT 03/M03 A303 RMK A01 T00341033  RH  062%=      5-min Rain = 0
KCA1 131545Z 18014KT 03/M03 A303 RMK A01 T00341033  RH  062%=      5-min Rain = 0
KCA1 131546Z 18016KT 04/M03 A303 RMK A01 T00361032  RH  061%=      5-min Rain = 0
KCA1 131547Z 19017KT 04/M03 A303 RMK A01 T00361033  RH  060%=      5-min Rain = 0
KCA1 131548Z 18015KT 03/M03 A303 RMK A01 T00341034  RH  061%=      5-min Rain = 0
KCA1 131549Z 18015KT 04/M03 A303 RMK A01 T00351033  RH  061%=      5-min Rain = 0
KCA1 131550Z 18015KT 04/M03 A303 RMK A01 T00361033  RH  061%=      5-min Rain = 0
KCA1 131551Z 18015KT 04/M03 A303 RMK A01 T00361033  RH  061%=      5-min Rain = 0
KCA1 131552Z 18013KT 04/M03 A303 RMK A01 T00381032  RH  060%=      5-min Rain = 0
KCA1 131553Z 18014KT 04/M03 A303 RMK A01 T00391031  RH  060%=      5-min Rain = 0
KCA1 131554Z 18014G19KT 04/M03 A303 RMK A01 T00411031  RH  059%=      5-min Rain = 0
KCA1 131555Z 18016KT 04/M03 A303 RMK A01 T00421031  RH  059%=      5-min Rain = 0
KCA1 131556Z 18015KT 04/M03 A303 RMK A01 T00421032  RH  059%=      5-min Rain = 0
KCA1 131557Z 18016KT 04/M03 A303 RMK A01 T00421032  RH  059%=      5-min Rain = 0
KCA1 131558Z 18017KT 04/M03 A303 RMK A01 T00411032  RH  059%=      5-min Rain = 0
KCA1 131559Z 18013KT 04/M03 A303 RMK A01 T00421032  RH  058%=      5-min Rain = 0
KCA1 131600Z 18015KT 04/M03 A303 RMK A01 T00421032  RH  058%=      5-min Rain = 0
KCA1 131601Z 18014KT 04/M03 A303 RMK A01 T00431032  RH  058%=      5-min Rain = 0
KCA1 131602Z 17016KT 04/M03 A303 RMK A01 T00431033  RH  058%=      5-min Rain = 0
KCA1 131603Z 18015KT 04/M03 A303 RMK A01 T00421034  RH  058%=      5-min Rain = 0
KCA1 131604Z 18015KT 04/M03 A303 RMK A01 T00421033  RH  058%=      5-min Rain = 0
KCA1 131605Z 18019KT 04/M03 A303 RMK A01 T00431033  RH  058%=      5-min Rain = 0
KCA1 131606Z 17017KT 04/M03 A303 RMK A01 T00431034  RH  058%=      5-min Rain = 0
KCA1 131607Z 17016KT 04/M03 A303 RMK A01 T00411034  RH  058%=      5-min Rain = 0
KCA1 131608Z 17016KT 04/M03 A303 RMK A01 T00421033  RH  058%=      5-min Rain = 0
KCA1 131609Z 18015KT 04/M03 A303 RMK A01 T00431032  RH  058%=      5-min Rain = 0
KCA1 131610Z 18013KT 05/M03 A303 RMK A01 T00451032  RH  057%=      5-min Rain = 0
KCA1 131611Z 18018KT 05/M03 A303 RMK A01 T00471032  RH  057%=      5-min Rain = 0
KCA1 131612Z 18018KT 05/M03 A303 RMK A01 T00481033  RH  056%=      5-min Rain = 0
KCA1 131613Z 18017KT 05/M04 A303 RMK A01 T00461035  RH  056%=      5-min Rain = 0
KCA1 131614Z 19015G20KT 05/M04 A303 RMK A01 T00451035  RH  056%=      5-min Rain = 0
KCA1 131615Z 19016KT 05/M03 A303 RMK A01 T00451034  RH  056%=      5-min Rain = 0
KCA1 131616Z 18017KT 05/M03 A303 RMK A01 T00451034  RH  056%=      5-min Rain = 0
KCA1 131617Z 18017KT 05/M04 A303 RMK A01 T00451035  RH  056%=      5-min Rain = 0
KCA1 131618Z 19017KT 05/M04 A303 RMK A01 T00451035  RH  056%=      5-min Rain = 0
KCA1 131619Z 18017KT 05/M04 A303 RMK A01 T00461035  RH  056%=      5-min Rain = 0
KCA1 131620Z 18016KT 05/M04 A303 RMK A01 T00471035  RH  055%=      5-min Rain = 0
KCA1 131621Z 18015KT 05/M04 A303 RMK A01 T00471035  RH  055%=      5-min Rain = 0
KCA1 131622Z 18015KT 05/M03 A303 RMK A01 T00481034  RH  055%=      5-min Rain = 0
KCA1 131623Z 19015KT 05/M04 A303 RMK A01 T00491035  RH  055%=      5-min Rain = 0
KCA1 131624Z 18015KT 05/M04 A303 RMK A01 T00481035  RH  055%=      5-min Rain = 0
KCA1 131625Z 18014KT 05/M03 A303 RMK A01 T00491034  RH  055%=      5-min Rain = 0
KCA1 131626Z 18016KT 05/M03 A303 RMK A01 T00501034  RH  054%=      5-min Rain = 0
KCA1 131627Z 18015KT 05/M03 A303 RMK A01 T00501034  RH  054%=      5-min Rain = 0
KCA1 131628Z 19013KT 05/M04 A303 RMK A01 T00501035  RH  054%=      5-min Rain = 0
KCA1 131629Z 18014G19KT 05/M03 A303 RMK A01 T00511034  RH  054%=      5-min Rain = 0
KCA1 131630Z 18014KT 05/M03 A303 RMK A01 T00531033  RH  054%=      5-min Rain = 0
KCA1 131631Z 18013KT 06/M03 A303 RMK A01 T00561033  RH  053%=      5-min Rain = 0
KCA1 131632Z 18013KT 06/M03 A303 RMK A01 T00561033  RH  053%=      5-min Rain = 0
KCA1 131633Z 18015KT 06/M03 A303 RMK A01 T00571033  RH  052%=      5-min Rain = 0
KCA1 131634Z 18014KT 06/M03 A303 RMK A01 T00591032  RH  052%=      5-min Rain = 0
KCA1 131635Z 18015KT 06/M03 A303 RMK A01 T00601033  RH  051%=      5-min Rain = 0
KCA1 131636Z 17015KT 06/M03 A303 RMK A01 T00601034  RH  051%=      5-min Rain = 0
KCA1 131637Z 18015KT 06/M03 A303 RMK A01 T00611034  RH  050%=      5-min Rain = 0
KCA1 131638Z 18014KT 06/M03 A303 RMK A01 T00621034  RH  050%=      5-min Rain = 0
KCA1 131639Z 18013KT 06/M03 A303 RMK A01 T00621034  RH  050%=      5-min Rain = 0
KCA1 131640Z 18012KT 06/M03 A303 RMK A01 T00631033  RH  050%=      5-min Rain = 0
KCA1 131641Z 18013KT 07/M03 A303 RMK A01 T00651032  RH  050%=      5-min Rain = 0
KCA1 131642Z 18014KT 07/M03 A303 RMK A01 T00671032  RH  049%=      5-min Rain = 0
KCA1 131643Z 19014KT 07/M03 A303 RMK A01 T00691033  RH  048%=      5-min Rain = 0
KCA1 131644Z 19013KT 07/M03 A303 RMK A01 T00681034  RH  048%=      5-min Rain = 0
KCA1 131645Z 19011KT 07/M03 A303 RMK A01 T00661034  RH  049%=      5-min Rain = 0
KCA1 131646Z 18011KT 07/M03 A303 RMK A01 T00691031  RH  049%=      5-min Rain = 0
KCA1 131647Z 20012KT 07/M03 A303 RMK A01 T00731030  RH  048%=      5-min Rain = 0
KCA1 131648Z 19010KT 07/M03 A303 RMK A01 T00741032  RH  047%=      5-min Rain = 0
KCA1 131649Z 19011KT 07/M03 A303 RMK A01 T00741032  RH  047%=      5-min Rain = 0
KCA1 131650Z 18010G15KT 07/M03 A303 RMK A01 T00741033  RH  047%=      5-min Rain = 0
KCA1 131651Z 17017KT 08/M03 A303 RMK A01 T00751033  RH  046%=      5-min Rain = 0
KCA1 131652Z 18014KT 07/M04 A303 RMK A01 T00731037  RH  046%=      5-min Rain = 0
KCA1 131653Z 18015KT 07/M04 A303 RMK A01 T00721037  RH  046%=      5-min Rain = 0
KCA1 131654Z 17015G20KT 07/M04 A303 RMK A01 T00721037  RH  046%=      5-min Rain = 0
KCA1 131655Z 17015KT 07/M04 A303 RMK A01 T00711038  RH  046%=      5-min Rain = 0
KCA1 131656Z 17013KT 07/M04 A303 RMK A01 T00701037  RH  046%=      5-min Rain = 0
KCA1 131657Z 18011KT 07/M04 A303 RMK A01 T00721035  RH  046%=      5-min Rain = 0
KCA1 131658Z 18014G21KT 08/M04 A303 RMK A01 T00751035  RH  046%=      5-min Rain = 0
KCA1 131659Z 17016KT 08/M04 A303 RMK A01 T00761035  RH  045%=      5-min Rain = 0
KCA1 131700Z 18016KT 08/M04 A303 RMK A01 T00751036  RH  045%=      5-min Rain = 0
KCA1 131701Z 18014KT 07/M04 A303 RMK A01 T00741036  RH  045%=      5-min Rain = 0
KCA1 131702Z 18013KT 07/M04 A303 RMK A01 T00741036  RH  046%=      5-min Rain = 0
KCA1 131703Z 19013KT 08/M04 A303 RMK A01 T00751035  RH  045%=      5-min Rain = 0
KCA1 131704Z 19012KT 07/M04 A303 RMK A01 T00741035  RH  046%=      5-min Rain = 0
KCA1 131705Z 18012KT 08/M03 A303 RMK A01 T00771033  RH  046%=      5-min Rain = 0
KCA1 131706Z 18014KT 08/M03 A303 RMK A01 T00801032  RH  045%=      5-min Rain = 0
KCA1 131707Z 17014KT 08/M03 A303 RMK A01 T00821033  RH  044%=      5-min Rain = 0
KCA1 131708Z 18014KT 08/M04 A303 RMK A01 T00821035  RH  044%=      5-min Rain = 0
KCA1 131709Z 18013KT 08/M04 A303 RMK A01 T00821035  RH  043%=      5-min Rain = 0
KCA1 131710Z 16015KT 08/M03 A303 RMK A01 T00831034  RH  043%=      5-min Rain = 0
KCA1 131711Z 18015KT 08/M04 A303 RMK A01 T00831035  RH  043%=      5-min Rain = 0
KCA1 131712Z 19016KT 08/M04 A303 RMK A01 T00821036  RH  043%=      5-min Rain = 0
KCA1 131713Z 18014KT 08/M04 A303 RMK A01 T00801037  RH  044%=      5-min Rain = 0
KCA1 131714Z 18013G19KT 08/M03 A303 RMK A01 T00821034  RH  044%=      5-min Rain = 0
KCA1 131715Z 18014KT 09/M03 A303 RMK A01 T00861033  RH  043%=      5-min Rain = 0
KCA1 131716Z 18013KT 09/M04 A303 RMK A01 T00851035  RH  043%=      5-min Rain = 0
KCA1 131717Z 17016KT 08/M03 A303 RMK A01 T00841034  RH  043%=      5-min Rain = 0
KCA1 131718Z 18015KT 09/M03 A303 RMK A01 T00861034  RH  043%=      5-min Rain = 0
KCA1 131719Z 18017KT 09/M03 A303 RMK A01 T00861034  RH  043%=      5-min Rain = 0
KCA1 131720Z 18017KT 09/M03 A303 RMK A01 T00861034  RH  043%=      5-min Rain = 0
KCA1 131721Z 18014KT 08/M03 A303 RMK A01 T00841034  RH  043%=      5-min Rain = 0
KCA1 131722Z 18013KT 08/M03 A303 RMK A01 T00841034  RH  043%=      5-min Rain = 0
KCA1 131723Z 19013KT 08/M03 A303 RMK A01 T00831034  RH  043%=      5-min Rain = 0
KCA1 131724Z 18014KT 08/M03 A303 RMK A01 T00831034  RH  043%=      5-min Rain = 0
KCA1 131725Z 17012KT 08/M03 A303 RMK A01 T00841034  RH  043%=      5-min Rain = 0
KCA1 131726Z 17016KT 09/M03 A303 RMK A01 T00891031  RH  043%=      5-min Rain = 0
KCA1 131727Z 19014KT 09/M03 A303 RMK A01 T00891034  RH  042%=      5-min Rain = 0
KCA1 131728Z 17014KT 09/M03 A303 RMK A01 T00871034  RH  042%=      5-min Rain = 0
KCA1 131729Z 16015KT 09/M03 A303 RMK A01 T00861033  RH  043%=      5-min Rain = 0
KCA1 131730Z 18013KT 09/M03 A303 RMK A01 T00861033  RH  043%=      5-min Rain = 0
KCA1 131731Z 17011KT 09/M03 A303 RMK A01 T00881031  RH  043%=      5-min Rain = 0
KCA1 131732Z 17013G18KT 09/M03 A303 RMK A01 T00941028  RH  042%=      5-min Rain = 0
KCA1 131733Z 18015KT 10/M03 A303 RMK A01 T00981029  RH  041%=      5-min Rain = 0
KCA1 131734Z 18013KT 10/M03 A3029 RMK A01 T00961031  RH  041%=      5-min Rain = 0
KCA1 131735Z 18013KT 09/M03 A3029 RMK A01 T00931033  RH  041%=      5-min Rain = 0
KCA1 131736Z 19013KT 09/M03 A3029 RMK A01 T00911032  RH  042%=      5-min Rain = 0
KCA1 131737Z 19015G20KT 09/M03 A3029 RMK A01 T00931029  RH  042%=      5-min Rain = 0
KCA1 131738Z 19015G20KT 10/M03 A3029 RMK A01 T00951027  RH  042%=      5-min Rain = 0
KCA1 131739Z 19018KT 09/M03 A3029 RMK A01 T00941027  RH  042%=      5-min Rain = 0
KCA1 131740Z 19015KT 09/M03 A3029 RMK A01 T00921025  RH  044%=      5-min Rain = 0
KCA1 131741Z 19016KT 09/M03 A3029 RMK A01 T00921025  RH  044%=      5-min Rain = 0
KCA1 131742Z 19013KT 09/M03 A3029 RMK A01 T00931026  RH  043%=      5-min Rain = 0
KCA1 131743Z 18017KT 09/M03 A3029 RMK A01 T00921025  RH  044%=      5-min Rain = 0
KCA1 131744Z 18013KT 09/M02 A3029 RMK A01 T00911024  RH  044%=      5-min Rain = 0
KCA1 131745Z 18017KT 09/M02 A3029 RMK A01 T00911024  RH  045%=      5-min Rain = 0
KCA1 131746Z 18015KT 09/M03 A3028 RMK A01 T00891025  RH  045%=      5-min Rain = 0
KCA1 131747Z 18015KT 09/M03 A3028 RMK A01 T00871025  RH  045%=      5-min Rain = 0
KCA1 131748Z 20016KT 09/M03 A3028 RMK A01 T00871025  RH  045%=      5-min Rain = 0
KCA1 131749Z 19015KT 09/M03 A3028 RMK A01 T00881025  RH  045%=      5-min Rain = 0
KCA1 131750Z 19018KT 09/M02 A3028 RMK A01 T00881024  RH  045%=      5-min Rain = 0
KCA1 131751Z 19017KT 09/M02 A3028 RMK A01 T00891024  RH  045%=      5-min Rain = 0
KCA1 131752Z 19017KT 09/M02 A3028 RMK A01 T00891024  RH  045%=      5-min Rain = 0
KCA1 131753Z 19017KT 09/M02 A3028 RMK A01 T00891024  RH  045%=      5-min Rain = 0
KCA1 131754Z 20015KT 09/M03 A3028 RMK A01 T00881025  RH  045%=      5-min Rain = 0
KCA1 131755Z 19013KT 09/M03 A3028 RMK A01 T00881025  RH  045%=      5-min Rain = 0
KCA1 131756Z 17016G21KT 09/M02 A3028 RMK A01 T00921023  RH  044%=      5-min Rain = 0
KCA1 131757Z 19016KT 09/M02 A3028 RMK A01 T00941022  RH  044%=      5-min Rain = 0
KCA1 131758Z 19016KT 10/M02 A3028 RMK A01 T00961023  RH  043%=      5-min Rain = 0
KCA1 131759Z 20014KT 09/M03 A3028 RMK A01 T00941025  RH  043%=      5-min Rain = 0
KCA1 131800Z 20015KT 09/M02 A3028 RMK A01 T00941023  RH  044%=      5-min Rain = 0
KCA1 131801Z 20014KT 10/M02 A3028 RMK A01 T00961022  RH  044%=      5-min Rain = 0
KCA1 131802Z 19013KT 10/M02 A3028 RMK A01 T00991019  RH  043%=      5-min Rain = 0
KCA1 131803Z 20013KT 10/M02 A3028 RMK A01 T01031018  RH  043%=      5-min Rain = 0
KCA1 131804Z 20014KT 10/M02 A3028 RMK A01 T01041019  RH  042%=      5-min Rain = 0
KCA1 131805Z 21015KT 10/M02 A3028 RMK A01 T01031019  RH  042%=      5-min Rain = 0
KCA1 131806Z 18017KT 10/M02 A3028 RMK A01 T01011019  RH  043%=      5-min Rain = 0
KCA1 131807Z 18019KT 10/M02 A3027 RMK A01 T01001019  RH  043%=      5-min Rain = 0
KCA1 131808Z 18017KT 10/M02 A3027 RMK A01 T00971020  RH  044%=      5-min Rain = 0
KCA1 131809Z 19015KT 10/M02 A3027 RMK A01 T00971020  RH  044%=      5-min Rain = 0
KCA1 131810Z 19014KT 10/M02 A3027 RMK A01 T00971020  RH  044%=      5-min Rain = 0
KCA1 131811Z 20014KT 10/M02 A3027 RMK A01 T00971019  RH  044%=      5-min Rain = 0
KCA1 131812Z 19015KT 10/M02 A3027 RMK A01 T01001016  RH  044%=      5-min Rain = 0
KCA1 131813Z 20013G18KT 10/M02 A3027 RMK A01 T01021015  RH  044%=      5-min Rain = 0
KCA1 131814Z 19014KT 10/M01 A3027 RMK A01 T01041014  RH  044%=      5-min Rain = 0
KCA1 131815Z 18018KT 11/M02 A3026 RMK A01 T01051015  RH  043%=      5-min Rain = 0
KCA1 131816Z 19017G23KT 10/M02 A3027 RMK A01 T01031015  RH  044%=      5-min Rain = 0
KCA1 131817Z 18017KT 11/M01 A3027 RMK A01 T01051013  RH  044%=      5-min Rain = 0
KCA1 131818Z 19017KT 11/M01 A3026 RMK A01 T01071014  RH  043%=      5-min Rain = 0
KCA1 131819Z 20016G22KT 11/M01 A3027 RMK A01 T01071014  RH  043%=      5-min Rain = 0
KCA1 131820Z 20020KT 11/M01 A3026 RMK A01 T01101011  RH  043%=      5-min Rain = 0
KCA1 131821Z 20022KT 11/M01 A3026 RMK A01 T01101012  RH  043%=      5-min Rain = 0
KCA1 131822Z 20022KT 11/M01 A3026 RMK A01 T01081012  RH  043%=      5-min Rain = 0
KCA1 131823Z 20019KT 11/M01 A3026 RMK A01 T01081012  RH  043%=      5-min Rain = 0
KCA1 131824Z 19018KT 11/M01 A3026 RMK A01 T01071013  RH  043%=      5-min Rain = 0
KCA1 131825Z 18017KT 11/M01 A3026 RMK A01 T01061012  RH  044%=      5-min Rain = 0
KCA1 131826Z 19015KT 11/M01 A3026 RMK A01 T01091012  RH  043%=      5-min Rain = 0
KCA1 131827Z 19015KT 11/M01 A3026 RMK A01 T01091012  RH  043%=      5-min Rain = 0
KCA1 131828Z 19013KT 11/M01 A3026 RMK A01 T01111011  RH  043%=      5-min Rain = 0
KCA1 131829Z 19013KT 11/M01 A3026 RMK A01 T01131010  RH  042%=      5-min Rain = 0
KCA1 131830Z 19016G23KT 12/M01 A3025 RMK A01 T01191007  RH  042%=      5-min Rain = 0
KCA1 131831Z 18018KT 12/M01 A3025 RMK A01 T01221007  RH  041%=      5-min Rain = 0
KCA1 131832Z 17018G25KT 12/M01 A3025 RMK A01 T01201008  RH  041%=      5-min Rain = 0
KCA1 131833Z 19017KT 12/M01 A3025 RMK A01 T01201007  RH  041%=      5-min Rain = 0
KCA1 131834Z 20016KT 12/M01 A3025 RMK A01 T01211007  RH  041%=      5-min Rain = 0
KCA1 131835Z 20016KT 12/M01 A3025 RMK A01 T01171010  RH  041%=      5-min Rain = 0
KCA1 131836Z 20016KT 11/M01 A3025 RMK A01 T01141011  RH  042%=      5-min Rain = 0
KCA1 131837Z 21016KT 11/M01 A3025 RMK A01 T01131010  RH  042%=      5-min Rain = 0
KCA1 131838Z 20019KT 11/M01 A3025 RMK A01 T01141009  RH  043%=      5-min Rain = 0
KCA1 131839Z 20017KT 12/M01 A3025 RMK A01 T01171008  RH  042%=      5-min Rain = 0
KCA1 131840Z 20016KT 12/M01 A3025 RMK A01 T01181007  RH  042%=      5-min Rain = 0
KCA1 131841Z 20017KT 12/M01 A3025 RMK A01 T01191007  RH  042%=      5-min Rain = 0
KCA1 131842Z 20018KT 12/M01 A3025 RMK A01 T01181008  RH  042%=      5-min Rain = 0
KCA1 131843Z 20020KT 12/M01 A3024 RMK A01 T01181008  RH  042%=      5-min Rain = 0
KCA1 131844Z 20018KT 12/M01 A3024 RMK A01 T01181007  RH  042%=      5-min Rain = 0
KCA1 131845Z 19020G26KT 12/M01 A3024 RMK A01 T01191006  RH  042%=      5-min Rain = 0
KCA1 131846Z 19019KT 12/M01 A3024 RMK A01 T01191007  RH  042%=      5-min Rain = 0
KCA1 131847Z 19017G22KT 12/M01 A3024 RMK A01 T01161007  RH  042%=      5-min Rain = 0
KCA1 131848Z 19018G23KT 12/M01 A3024 RMK A01 T01171006  RH  043%=      5-min Rain = 0
KCA1 131849Z 19019KT 12/M01 A3023 RMK A01 T01171006  RH  042%=      5-min Rain = 0
KCA1 131850Z 19017KT 12/M01 A3024 RMK A01 T01171006  RH  043%=      5-min Rain = 0
KCA1 131851Z 19018KT 12/M00 A3023 RMK A01 T01211003  RH  042%=      5-min Rain = 0
KCA1 131852Z 19015KT 12/M00 A3024 RMK A01 T01231003  RH  042%=      5-min Rain = 0
KCA1 131853Z 20014KT 13/M00 A3024 RMK A01 T01251003  RH  041%=      5-min Rain = 0
KCA1 131854Z 20014KT 13/M00 A3023 RMK A01 T01271002  RH  041%=      5-min Rain = 0
KCA1 131855Z 19019KT 13/M00 A3023 RMK A01 T01281003  RH  041%=      5-min Rain = 0
KCA1 131856Z 20019KT 13/M01 A3023 RMK A01 T01251006  RH  041%=      5-min Rain = 0
KCA1 131857Z 20018KT 12/M01 A3023 RMK A01 T01191006  RH  042%=      5-min Rain = 0
KCA1 131858Z 20017KT 12/M01 A3023 RMK A01 T01191005  RH  042%=      5-min Rain = 0
KCA1 131859Z 20016KT 12/M00 A3023 RMK A01 T01211004  RH  042%=      5-min Rain = 0
KCA1 131900Z 19017G23KT 12/M00 A3023 RMK A01 T01221004  RH  042%=      5-min Rain = 0
KCA1 131901Z 21018KT 12/M01 A3023 RMK A01 T01221005  RH  042%=      5-min Rain = 0
KCA1 131902Z 20016G21KT 12/M01 A3023 RMK A01 T01221005  RH  041%=      5-min Rain = 0
KCA1 131903Z 21012KT 12/M01 A3023 RMK A01 T01211005  RH  042%=      5-min Rain = 0
KCA1 131904Z 21017KT 12/M00 A3023 RMK A01 T01231004  RH  042%=      5-min Rain = 0
KCA1 131905Z 20017KT 12/M01 A3023 RMK A01 T01231006  RH  041%=      5-min Rain = 0
KCA1 131906Z 21014KT 12/M01 A3023 RMK A01 T01221007  RH  041%=      5-min Rain = 0
KCA1 131907Z 21017KT 12/M01 A3023 RMK A01 T01221006  RH  041%=      5-min Rain = 0
KCA1 131908Z 20017KT 12/M01 A3022 RMK A01 T01231006  RH  041%=      5-min Rain = 0
KCA1 131909Z 19016KT 13/M01 A3023 RMK A01 T01261006  RH  040%=      5-min Rain = 0
KCA1 131910Z 20016KT 13/M01 A3023 RMK A01 T01261007  RH  040%=      5-min Rain = 0
KCA1 131911Z 19013KT 12/M01 A3023 RMK A01 T01241008  RH  040%=      5-min Rain = 0
KCA1 131912Z 20014G19KT 12/M01 A3022 RMK A01 T01231008  RH  040%=      5-min Rain = 0
KCA1 131913Z 18015KT 13/M01 A3022 RMK A01 T01251007  RH  040%=      5-min Rain = 0
KCA1 131914Z 18018KT 13/M01 A3022 RMK A01 T01261008  RH  040%=      5-min Rain = 0
KCA1 131915Z 18016KT 13/M01 A3022 RMK A01 T01251008  RH  040%=      5-min Rain = 0
KCA1 131916Z 19017KT 13/M01 A3022 RMK A01 T01251008  RH  040%=      5-min Rain = 0
KCA1 131917Z 19018KT 13/M01 A3022 RMK A01 T01251008  RH  040%=      5-min Rain = 0
KCA1 131918Z 19016KT 12/M01 A3022 RMK A01 T01241009  RH  040%=      5-min Rain = 0
KCA1 131919Z 19015KT 12/M01 A3022 RMK A01 T01241009  RH  040%=      5-min Rain = 0
KCA1 131920Z 20016KT 13/M01 A3022 RMK A01 T01251009  RH  040%=      5-min Rain = 0
KCA1 131921Z 20015KT 13/M01 A3022 RMK A01 T01251009  RH  039%=      5-min Rain = 0
KCA1 131922Z 19013G18KT 13/M01 A3022 RMK A01 T01251009  RH  039%=      5-min Rain = 0
KCA1 131923Z 19016KT 13/M01 A3022 RMK A01 T01251009  RH  039%=      5-min Rain = 0
KCA1 131924Z 20014KT 13/M01 A3022 RMK A01 T01271009  RH  039%=      5-min Rain = 0
KCA1 131925Z 19011KT 13/M01 A3022 RMK A01 T01281009  RH  039%=      5-min Rain = 0
KCA1 131926Z 19011KT 13/M01 A3022 RMK A01 T01301008  RH  038%=      5-min Rain = 0
KCA1 131927Z 19013KT 13/M01 A3022 RMK A01 T01331007  RH  038%=      5-min Rain = 0
KCA1 131928Z 20014KT 14/M01 A3022 RMK A01 T01351007  RH  038%=      5-min Rain = 0
KCA1 131929Z 20017KT 14/M01 A3021 RMK A01 T01361008  RH  037%=      5-min Rain = 0
KCA1 131930Z 20016KT 13/M01 A3021 RMK A01 T01331010  RH  037%=      5-min Rain = 0
KCA1 131931Z 20017KT 13/M01 A3021 RMK A01 T01311010  RH  038%=      5-min Rain = 0
KCA1 131932Z 19015KT 13/M01 A3021 RMK A01 T01311010  RH  038%=      5-min Rain = 0
KCA1 131933Z 19014G19KT 13/M01 A3021 RMK A01 T01291010  RH  038%=      5-min Rain = 0
KCA1 131934Z 19016KT 13/M01 A3021 RMK A01 T01301009  RH  038%=      5-min Rain = 0
KCA1 131935Z 19015KT 13/M01 A3021 RMK A01 T01311009  RH  038%=      5-min Rain = 0
KCA1 131936Z 20015KT 13/M01 A3021 RMK A01 T01331009  RH  038%=      5-min Rain = 0
KCA1 131937Z 19014KT 13/M01 A3021 RMK A01 T01321010  RH  038%=      5-min Rain = 0
KCA1 131938Z 19011KT 13/M01 A3021 RMK A01 T01291011  RH  038%=      5-min Rain = 0
KCA1 131939Z 20012KT 13/M01 A302 RMK A01 T01311008  RH  038%=      5-min Rain = 0
KCA1 131940Z 19014KT 13/M01 A302 RMK A01 T01341008  RH  037%=      5-min Rain = 0
KCA1 131941Z 19014KT 13/M01 A302 RMK A01 T01341009  RH  037%=      5-min Rain = 0
KCA1 131942Z 19015KT 14/M01 A302 RMK A01 T01351010  RH  037%=      5-min Rain = 0
KCA1 131943Z 18010G15KT 13/M01 A302 RMK A01 T01311011  RH  037%=      5-min Rain = 0
KCA1 131944Z 17013KT 13/M01 A302 RMK A01 T01321009  RH  038%=      5-min Rain = 0
KCA1 131945Z 18013KT 14/M01 A302 RMK A01 T01371008  RH  037%=      5-min Rain = 0
KCA1 131946Z 19013KT 14/M01 A302 RMK A01 T01381009  RH  036%=      5-min Rain = 0
KCA1 131947Z 18012G17KT 14/M01 A302 RMK A01 T01391008  RH  036%=      5-min Rain = 0
KCA1 131948Z 17013G18KT 14/M01 A302 RMK A01 T01411008  RH  036%=      5-min Rain = 0
KCA1 131949Z 18013KT 14/M01 A302 RMK A01 T01411008  RH  036%=      5-min Rain = 0
KCA1 131950Z 18015KT 14/M01 A302 RMK A01 T01411009  RH  036%=      5-min Rain = 0
KCA1 131951Z 18015KT 14/M01 A302 RMK A01 T01411009  RH  036%=      5-min Rain = 0
KCA1 131952Z 18015KT 14/M01 A302 RMK A01 T01401010  RH  036%=      5-min Rain = 0
KCA1 131953Z 19017KT 14/M01 A302 RMK A01 T01381010  RH  036%=      5-min Rain = 0
KCA1 131954Z 18016KT 14/M01 A302 RMK A01 T01381010  RH  036%=      5-min Rain = 0
KCA1 131955Z 18014KT 14/M01 A302 RMK A01 T01371009  RH  036%=      5-min Rain = 0
KCA1 131956Z 18016KT 14/M01 A302 RMK A01 T01381009  RH  036%=      5-min Rain = 0
KCA1 131957Z 19015KT 14/M01 A302 RMK A01 T01401008  RH  036%=      5-min Rain = 0
KCA1 131958Z 20013KT 14/M01 A302 RMK A01 T01411008  RH  036%=      5-min Rain = 0
KCA1 131959Z 20011KT 14/M01 A302 RMK A01 T01401008  RH  036%=      5-min Rain = 0
KCA1 132000Z 20016KT 14/M01 A302 RMK A01 T01421006  RH  036%=      5-min Rain = 0
KCA1 132001Z 19013KT 14/M01 A302 RMK A01 T01431008  RH  035%=      5-min Rain = 0
KCA1 132002Z 18011KT 14/M01 A302 RMK A01 T01431008  RH  035%=      5-min Rain = 0
KCA1 132003Z 18013KT 14/M01 A3019 RMK A01 T01411009  RH  036%=      5-min Rain = 0
KCA1 132004Z 18013G19KT 14/M01 A3019 RMK A01 T01401008  RH  036%=      5-min Rain = 0
KCA1 132005Z 19015KT 14/M01 A302 RMK A01 T01411007  RH  036%=      5-min Rain = 0
KCA1 132006Z 19013KT 14/M01 A302 RMK A01 T01401008  RH  036%=      5-min Rain = 0
KCA1 132007Z 20016KT 14/M01 A302 RMK A01 T01421006  RH  036%=      5-min Rain = 0
KCA1 132008Z 19015KT 14/M01 A302 RMK A01 T01411008  RH  036%=      5-min Rain = 0
KCA1 132009Z 19015KT 14/M01 A302 RMK A01 T01381008  RH  036%=      5-min Rain = 0
KCA1 132010Z 18014KT 14/M01 A302 RMK A01 T01351008  RH  037%=      5-min Rain = 0
KCA1 132011Z 19014KT 14/M01 A302 RMK A01 T01371006  RH  037%=      5-min Rain = 0
KCA1 132012Z 19013KT 14/M01 A302 RMK A01 T01391007  RH  037%=      5-min Rain = 0
KCA1 132013Z 18014KT 14/M01 A3019 RMK A01 T01371008  RH  037%=      5-min Rain = 0
KCA1 132014Z 19016KT 14/M01 A3019 RMK A01 T01371007  RH  037%=      5-min Rain = 0
KCA1 132015Z 20014KT 14/M01 A3019 RMK A01 T01411006  RH  037%=      5-min Rain = 0
KCA1 132016Z 18011KT 14/M01 A3019 RMK A01 T01441005  RH  036%=      5-min Rain = 0
KCA1 132017Z 18017KT 15/M01 A3019 RMK A01 T01451005  RH  036%=      5-min Rain = 0
KCA1 132018Z 18012KT 14/M01 A3019 RMK A01 T01421008  RH  036%=      5-min Rain = 0
KCA1 132019Z 17013KT 14/M01 A3019 RMK A01 T01411007  RH  036%=      5-min Rain = 0
KCA1 132020Z 18016G21KT 14/M01 A3019 RMK A01 T01441006  RH  036%=      5-min Rain = 0
KCA1 132021Z 18019KT 14/M01 A3019 RMK A01 T01441007  RH  035%=      5-min Rain = 0
KCA1 132022Z 18016KT 14/M01 A3019 RMK A01 T01411008  RH  036%=      5-min Rain = 0
KCA1 132023Z 18016KT 14/M01 A3019 RMK A01 T01401007  RH  036%=      5-min Rain = 0
KCA1 132024Z 19014KT 14/M01 A3019 RMK A01 T01391008  RH  036%=      5-min Rain = 0
KCA1 132025Z 18013KT 14/M01 A3019 RMK A01 T01371008  RH  037%=      5-min Rain = 0
KCA1 132026Z 18016KT 14/M01 A3019 RMK A01 T01391007  RH  037%=      5-min Rain = 0
KCA1 132027Z 19016KT 14/M01 A3019 RMK A01 T01391008  RH  036%=      5-min Rain = 0
KCA1 132028Z 18014KT 14/M01 A3019 RMK A01 T01371010  RH  036%=      5-min Rain = 0
KCA1 132029Z 18015G20KT 14/M01 A3019 RMK A01 T01351009  RH  037%=      5-min Rain = 0
KCA1 132030Z 18015KT 14/M01 A3019 RMK A01 T01361009  RH  037%=      5-min Rain = 0
KCA1 132031Z 18016KT 14/M01 A3019 RMK A01 T01371008  RH  037%=      5-min Rain = 0
KCA1 132032Z 19016KT 14/M01 A3019 RMK A01 T01381008  RH  037%=      5-min Rain = 0
KCA1 132033Z 19017KT 14/M01 A3019 RMK A01 T01371009  RH  037%=      5-min Rain = 0
KCA1 132034Z 19015KT 13/M01 A3019 RMK A01 T01341010  RH  037%=      5-min Rain = 0
KCA1 132035Z 19014KT 13/M01 A3019 RMK A01 T01341009  RH  037%=      5-min Rain = 0
KCA1 132036Z 19014G19KT 14/M01 A3019 RMK A01 T01361008  RH  037%=      5-min Rain = 0
KCA1 132037Z 19012KT 14/M01 A3019 RMK A01 T01391007  RH  036%=      5-min Rain = 0
KCA1 132038Z 18011KT 14/M01 A3019 RMK A01 T01421007  RH  036%=      5-min Rain = 0
KCA1 132039Z 19010KT 15/M01 A3019 RMK A01 T01451007  RH  035%=      5-min Rain = 0
KCA1 132040Z 18012KT 14/M01 A3019 RMK A01 T01441008  RH  035%=      5-min Rain = 0
KCA1 132041Z 17013G19KT 14/M01 A3018 RMK A01 T01421009  RH  035%=      5-min Rain = 0
KCA1 132042Z 18016KT 14/M01 A3018 RMK A01 T01411009  RH  035%=      5-min Rain = 0
KCA1 132043Z 20013KT 14/M01 A3018 RMK A01 T01401009  RH  036%=      5-min Rain = 0
KCA1 132044Z 18014KT 14/M01 A3018 RMK A01 T01411008  RH  036%=      5-min Rain = 0
KCA1 132045Z 19016KT 14/M01 A3018 RMK A01 T01421009  RH  035%=      5-min Rain = 0
KCA1 132046Z 18015KT 14/M01 A3018 RMK A01 T01421009  RH  035%=      5-min Rain = 0
KCA1 132047Z 19014KT 14/M01 A3018 RMK A01 T01421010  RH  035%=      5-min Rain = 0
KCA1 132048Z 19014KT 14/M01 A3018 RMK A01 T01411010  RH  035%=      5-min Rain = 0
KCA1 132049Z 20012KT 14/M01 A3018 RMK A01 T01381010  RH  036%=      5-min Rain = 0
KCA1 132050Z 19013KT 14/M01 A3018 RMK A01 T01371010  RH  036%=      5-min Rain = 0
KCA1 132051Z 19010KT 14/M01 A3019 RMK A01 T01361011  RH  036%=      5-min Rain = 0
KCA1 132052Z 19011KT 13/M01 A3018 RMK A01 T01341010  RH  037%=      5-min Rain = 0
KCA1 132053Z 20011KT 13/M01 A3018 RMK A01 T01331011  RH  037%=      5-min Rain = 0
KCA1 132054Z 20012G17KT 13/M01 A3018 RMK A01 T01311011  RH  037%=      5-min Rain = 0
KCA1 132055Z 19016KT 13/M01 A3018 RMK A01 T01291011  RH  038%=      5-min Rain = 0
KCA1 132056Z 20013KT 13/M01 A3018 RMK A01 T01281011  RH  038%=      5-min Rain = 0
KCA1 132057Z 19011KT 13/M01 A3018 RMK A01 T01301009  RH  038%=      5-min Rain = 0
KCA1 132058Z 21011KT 14/M01 A3018 RMK A01 T01361006  RH  038%=      5-min Rain = 0
KCA1 132059Z 17012KT 14/M01 A3018 RMK A01 T01401006  RH  037%=      5-min Rain = 0
KCA1 132100Z 17014G19KT 14/M01 A3018 RMK A01 T01411007  RH  036%=      5-min Rain = 0
KCA1 132101Z 18016KT 14/M01 A3018 RMK A01 T01391009  RH  036%=      5-min Rain = 0
KCA1 132102Z 18015KT 14/M01 A3018 RMK A01 T01351011  RH  037%=      5-min Rain = 0
KCA1 132103Z 19016KT 13/M01 A3018 RMK A01 T01331010  RH  037%=      5-min Rain = 0
KCA1 132104Z 19015KT 13/M01 A3018 RMK A01 T01331009  RH  037%=      5-min Rain = 0
KCA1 132105Z 19012KT 13/M01 A3018 RMK A01 T01311010  RH  038%=      5-min Rain = 0
KCA1 132106Z 18012KT 13/M01 A3018 RMK A01 T01321008  RH  038%=      5-min Rain = 0
KCA1 132107Z 18011KT 13/M01 A3018 RMK A01 T01331008  RH  038%=      5-min Rain = 0
KCA1 132108Z 18013KT 13/M01 A3018 RMK A01 T01331008  RH  038%=      5-min Rain = 0
KCA1 132109Z 18012KT 13/M01 A3018 RMK A01 T01331008  RH  038%=      5-min Rain = 0
KCA1 132110Z 20012KT 14/M01 A3018 RMK A01 T01381006  RH  037%=      5-min Rain = 0
KCA1 132111Z 19013KT 14/M01 A3018 RMK A01 T01391007  RH  037%=      5-min Rain = 0
KCA1 132112Z 19013KT 14/M01 A3018 RMK A01 T01401007  RH  036%=      5-min Rain = 0
KCA1 132113Z 19014KT 14/M01 A3018 RMK A01 T01401007  RH  036%=      5-min Rain = 0
KCA1 132114Z 19015KT 14/M01 A3018 RMK A01 T01381009  RH  036%=      5-min Rain = 0
KCA1 132115Z 20011KT 13/M01 A3018 RMK A01 T01341010  RH  037%=      5-min Rain = 0
KCA1 132116Z 19013KT 13/M01 A3018 RMK A01 T01331009  RH  038%=      5-min Rain = 0
KCA1 132117Z 19014G19KT 13/M01 A3018 RMK A01 T01321008  RH  038%=      5-min Rain = 0
KCA1 132118Z 19015KT 13/M01 A3018 RMK A01 T01321008  RH  038%=      5-min Rain = 0
KCA1 132119Z 19016KT 13/M01 A3018 RMK A01 T01321008  RH  038%=      5-min Rain = 0
KCA1 132120Z 20014KT 13/M01 A3018 RMK A01 T01321008  RH  038%=      5-min Rain = 0
KCA1 132121Z 20011KT 14/M01 A3018 RMK A01 T01351006  RH  038%=      5-min Rain = 0
KCA1 132122Z 20013KT 14/M01 A3018 RMK A01 T01391005  RH  037%=      5-min Rain = 0
KCA1 132123Z 19015KT 14/M01 A3018 RMK A01 T01401006  RH  037%=      5-min Rain = 0
KCA1 132124Z 19013KT 14/M01 A3018 RMK A01 T01391007  RH  037%=      5-min Rain = 0
KCA1 132125Z 19013KT 14/M01 A3018 RMK A01 T01361008  RH  037%=      5-min Rain = 0
KCA1 132126Z 18014KT 14/M01 A3018 RMK A01 T01351007  RH  038%=      5-min Rain = 0
KCA1 132127Z 18013KT 14/M01 A3017 RMK A01 T01351007  RH  038%=      5-min Rain = 0
KCA1 132128Z 19013KT 14/M01 A3017 RMK A01 T01361006  RH  038%=      5-min Rain = 0
KCA1 132129Z 20013KT 14/M01 A3017 RMK A01 T01371006  RH  037%=      5-min Rain = 0
KCA1 132130Z 21013KT 14/M01 A3017 RMK A01 T01371006  RH  037%=      5-min Rain = 0
KCA1 132131Z 21015KT 14/M01 A3017 RMK A01 T01371006  RH  037%=      5-min Rain = 0
KCA1 132132Z 21014KT 14/M01 A3017 RMK A01 T01371007  RH  037%=      5-min Rain = 0
KCA1 132133Z 20015KT 14/M01 A3017 RMK A01 T01371006  RH  037%=      5-min Rain = 0
KCA1 132134Z 20014KT 14/M01 A3017 RMK A01 T01381006  RH  037%=      5-min Rain = 0
KCA1 132135Z 19016KT 14/M01 A3017 RMK A01 T01391005  RH  037%=      5-min Rain = 0
KCA1 132136Z 19016KT 14/M01 A3017 RMK A01 T01401005  RH  037%=      5-min Rain = 0
KCA1 132137Z 20015KT 14/M01 A3017 RMK A01 T01411005  RH  037%=      5-min Rain = 0
KCA1 132138Z 19013KT 14/M01 A3017 RMK A01 T01411005  RH  037%=      5-min Rain = 0
KCA1 132139Z 19013KT 14/M01 A3017 RMK A01 T01411005  RH  037%=      5-min Rain = 0
KCA1 132140Z 19016KT 14/M01 A3017 RMK A01 T01401006  RH  037%=      5-min Rain = 0
KCA1 132141Z 19012KT 14/M01 A3017 RMK A01 T01381007  RH  037%=      5-min Rain = 0
KCA1 132142Z 20011KT 14/M01 A3017 RMK A01 T01381006  RH  037%=      5-min Rain = 0
KCA1 132143Z 20012KT 14/M00 A3017 RMK A01 T01401004  RH  037%=      5-min Rain = 0
KCA1 132144Z 20014KT 14/M00 A3017 RMK A01 T01421004  RH  037%=      5-min Rain = 0
KCA1 132145Z 19012KT 14/M00 A3017 RMK A01 T01431004  RH  036%=      5-min Rain = 0
KCA1 132146Z 19010KT 14/M00 A3017 RMK A01 T01431004  RH  036%=      5-min Rain = 0
KCA1 132147Z 19010KT 14/M00 A3017 RMK A01 T01431004  RH  036%=      5-min Rain = 0
KCA1 132148Z 20010KT 15/M00 A3017 RMK A01 T01451004  RH  036%=      5-min Rain = 0
KCA1 132149Z 20012KT 15/M00 A3017 RMK A01 T01451004  RH  036%=      5-min Rain = 0
KCA1 132150Z 19011KT 14/M01 A3017 RMK A01 T01441005  RH  036%=      5-min Rain = 0
KCA1 132151Z 20011KT 15/M00 A3017 RMK A01 T01451004  RH  036%=      5-min Rain = 0
KCA1 132152Z 20010KT 15/M00 A3017 RMK A01 T01481003  RH  036%=      5-min Rain = 0
KCA1 132153Z 18010KT 15/M00 A3017 RMK A01 T01521002  RH  035%=      5-min Rain = 0
KCA1 132154Z 18012KT 15/M00 A3017 RMK A01 T01541002  RH  034%=      5-min Rain = 0
KCA1 132155Z 20010KT 16/M00 A3017 RMK A01 T01561001  RH  034%=      5-min Rain = 0
KCA1 132156Z 20011KT 16/M00 A3017 RMK A01 T01581003  RH  033%=      5-min Rain = 0
KCA1 132157Z 20014KT 16/M00 A3017 RMK A01 T01571004  RH  033%=      5-min Rain = 0
KCA1 132158Z 19014KT 16/M00 A3017 RMK A01 T01561004  RH  034%=      5-min Rain = 0
KCA1 132159Z 19013KT 16/M00 A3017 RMK A01 T01561004  RH  034%=      5-min Rain = 0
KCA1 132200Z 18012KT 16/M00 A3017 RMK A01 T01571003  RH  034%=      5-min Rain = 0
KCA1 132201Z 19013KT 16/M00 A3017 RMK A01 T01581003  RH  033%=      5-min Rain = 0
KCA1 132202Z 20011KT 16/M00 A3017 RMK A01 T01601002  RH  033%=      5-min Rain = 0
KCA1 132203Z 20015KT 16/M00 A3017 RMK A01 T01611003  RH  033%=      5-min Rain = 0
KCA1 132204Z 20014KT 16/M01 A3017 RMK A01 T01601005  RH  033%=      5-min Rain = 0
KCA1 132205Z 20014KT 16/M01 A3017 RMK A01 T01581005  RH  033%=      5-min Rain = 0
KCA1 132206Z 20013KT 16/M01 A3017 RMK A01 T01551006  RH  033%=      5-min Rain = 0
KCA1 132207Z 21013KT 16/M01 A3017 RMK A01 T01551005  RH  033%=      5-min Rain = 0
KCA1 132208Z 21014KT 15/M01 A3017 RMK A01 T01531006  RH  034%=      5-min Rain = 0
KCA1 132209Z 20012KT 15/M01 A3017 RMK A01 T01511006  RH  034%=      5-min Rain = 0
KCA1 132210Z 19011KT 15/M01 A3017 RMK A01 T01511005  RH  034%=      5-min Rain = 0
KCA1 132211Z 19011KT 15/M00 A3017 RMK A01 T01531004  RH  034%=      5-min Rain = 0
KCA1 132212Z 21015KT 15/M00 A3016 RMK A01 T01541004  RH  034%=      5-min Rain = 0
KCA1 132213Z 21014KT 16/M00 A3016 RMK A01 T01561004  RH  033%=      5-min Rain = 0
KCA1 132214Z 19012KT 16/M00 A3017 RMK A01 T01581004  RH  033%=      5-min Rain = 0
KCA1 132215Z 20014KT 16/M00 A3017 RMK A01 T01611003  RH  033%=      5-min Rain = 0
KCA1 132216Z 20011KT 16/M00 A3017 RMK A01 T01611004  RH  033%=      5-min Rain = 0
KCA1 132217Z 20016KT 16/M00 A3016 RMK A01 T01621003  RH  032%=      5-min Rain = 0
KCA1 132218Z 20015KT 16/M00 A3016 RMK A01 T01611004  RH  033%=      5-min Rain = 0
KCA1 132219Z 20015KT 16/M00 A3016 RMK A01 T01601004  RH  033%=      5-min Rain = 0
KCA1 132220Z 19015KT 16/M01 A3016 RMK A01 T01581005  RH  033%=      5-min Rain = 0
KCA1 132221Z 20014KT 16/M01 A3016 RMK A01 T01581005  RH  033%=      5-min Rain = 0
KCA1 132222Z 21014KT 16/M01 A3016 RMK A01 T01591005  RH  033%=      5-min Rain = 0
KCA1 132223Z 21014KT 16/M01 A3016 RMK A01 T01591005  RH  033%=      5-min Rain = 0
KCA1 132224Z 20015KT 16/M01 A3016 RMK A01 T01601005  RH  033%=      5-min Rain = 0
KCA1 132225Z 19014KT 16/M01 A3017 RMK A01 T01591005  RH  033%=      5-min Rain = 0
KCA1 132226Z 19016KT 16/M01 A3017 RMK A01 T01581005  RH  033%=      5-min Rain = 0
KCA1 132227Z 19015KT 16/M01 A3017 RMK A01 T01561006  RH  033%=      5-min Rain = 0
KCA1 132228Z 18016KT 15/M01 A3017 RMK A01 T01541005  RH  034%=      5-min Rain = 0
KCA1 132229Z 19016KT 15/M01 A3017 RMK A01 T01541005  RH  034%=      5-min Rain = 0
KCA1 132230Z 19014KT 15/M01 A3017 RMK A01 T01531005  RH  034%=      5-min Rain = 0
KCA1 132231Z 19012KT 15/M00 A3017 RMK A01 T01541004  RH  034%=      5-min Rain = 0
KCA1 132232Z 20012KT 15/M00 A3016 RMK A01 T01531004  RH  034%=      5-min Rain = 0
KCA1 132233Z 20013KT 15/M00 A3016 RMK A01 T01531004  RH  034%=      5-min Rain = 0
KCA1 132234Z 20013KT 15/M01 A3016 RMK A01 T01521005  RH  034%=      5-min Rain = 0
KCA1 132235Z 19012KT 15/M01 A3016 RMK A01 T01521005  RH  034%=      5-min Rain = 0
KCA1 132236Z 19014KT 15/M01 A3016 RMK A01 T01521005  RH  034%=      5-min Rain = 0
KCA1 132237Z 19016KT 15/M01 A3016 RMK A01 T01521006  RH  034%=      5-min Rain = 0
KCA1 132238Z 18014KT 15/M01 A3016 RMK A01 T01491007  RH  034%=      5-min Rain = 0
KCA1 132239Z 19012KT 15/M01 A3016 RMK A01 T01481007  RH  035%=      5-min Rain = 0
KCA1 132240Z 19013KT 15/M01 A3016 RMK A01 T01471007  RH  035%=      5-min Rain = 0
KCA1 132241Z 19012KT 15/M01 A3016 RMK A01 T01471007  RH  035%=      5-min Rain = 0
KCA1 132242Z 18013KT 15/M01 A3016 RMK A01 T01481006  RH  035%=      5-min Rain = 0
KCA1 132243Z 17012KT 15/M01 A3016 RMK A01 T01481007  RH  035%=      5-min Rain = 0
KCA1 132244Z 17013KT 15/M01 A3016 RMK A01 T01471007  RH  035%=      5-min Rain = 0
KCA1 132245Z 18013KT 15/M01 A3016 RMK A01 T01471007  RH  035%=      5-min Rain = 0
KCA1 132246Z 19014KT 15/M01 A3016 RMK A01 T01471007  RH  035%=      5-min Rain = 0
KCA1 132247Z 18012KT 15/M01 A3016 RMK A01 T01461007  RH  035%=      5-min Rain = 0
KCA1 132248Z 18010KT 15/M01 A3017 RMK A01 T01451008  RH  035%=      5-min Rain = 0
KCA1 132249Z 18013KT 15/M01 A3017 RMK A01 T01461007  RH  035%=      5-min Rain = 0
KCA1 132250Z 18013KT 15/M01 A3016 RMK A01 T01461008  RH  035%=      5-min Rain = 0
KCA1 132251Z 18012KT 15/M01 A3016 RMK A01 T01461007  RH  035%=      5-min Rain = 0
KCA1 132252Z 18013KT 15/M01 A3016 RMK A01 T01461007  RH  035%=      5-min Rain = 0
KCA1 132253Z 18013KT 15/M01 A3016 RMK A01 T01481006  RH  035%=      5-min Rain = 0
KCA1 132254Z 17013KT 15/M01 A3016 RMK A01 T01491006  RH  034%=      5-min Rain = 0
KCA1 132255Z 17012KT 15/M01 A3016 RMK A01 T01501007  RH  034%=      5-min Rain = 0
KCA1 132256Z 17014KT 15/M01 A3016 RMK A01 T01511007  RH  034%=      5-min Rain = 0
KCA1 132257Z 18015KT 15/M01 A3016 RMK A01 T01511007  RH  034%=      5-min Rain = 0
KCA1 132258Z 18013KT 15/M01 A3016 RMK A01 T01491008  RH  034%=      5-min Rain = 0
KCA1 132259Z 19015KT 15/M01 A3016 RMK A01 T01491008  RH  034%=      5-min Rain = 0
KCA1 132300Z 18014KT 15/M01 A3016 RMK A01 T01481008  RH  034%=      5-min Rain = 0
KCA1 132301Z 19014KT 15/M01 A3016 RMK A01 T01481008  RH  034%=      5-min Rain = 0
KCA1 132302Z 18012KT 15/M01 A3016 RMK A01 T01481009  RH  034%=      5-min Rain = 0
KCA1 132303Z 18015KT 15/M01 A3016 RMK A01 T01491009  RH  034%=      5-min Rain = 0
KCA1 132304Z 18015KT 15/M01 A3016 RMK A01 T01491009  RH  034%=      5-min Rain = 0
KCA1 132305Z 18012KT 15/M01 A3016 RMK A01 T01471010  RH  034%=      5-min Rain = 0
KCA1 132306Z 19012KT 15/M01 A3016 RMK A01 T01471010  RH  034%=      5-min Rain = 0
KCA1 132307Z 19015KT 15/M01 A3016 RMK A01 T01471010  RH  034%=      5-min Rain = 0
KCA1 132308Z 19013KT 15/M01 A3016 RMK A01 T01471011  RH  034%=      5-min Rain = 0
KCA1 132309Z 19013KT 15/M01 A3017 RMK A01 T01461011  RH  034%=      5-min Rain = 0
KCA1 132310Z 19012KT 15/M01 A3017 RMK A01 T01461011  RH  034%=      5-min Rain = 0
KCA1 132311Z 19012KT 15/M01 A3016 RMK A01 T01461010  RH  034%=      5-min Rain = 0
KCA1 132312Z 19013KT 15/M01 A3017 RMK A01 T01461010  RH  034%=      5-min Rain = 0
KCA1 132313Z 19011KT 15/M01 A3017 RMK A01 T01461010  RH  034%=      5-min Rain = 0
KCA1 132314Z 19010KT 15/M01 A3017 RMK A01 T01461009  RH  034%=      5-min Rain = 0
KCA1 132315Z 19012KT 15/M01 A3016 RMK A01 T01461009  RH  034%=      5-min Rain = 0
KCA1 132316Z 19012KT 15/M01 A3016 RMK A01 T01461009  RH  035%=      5-min Rain = 0
KCA1 132317Z 19014KT 15/M01 A3016 RMK A01 T01451009  RH  035%=      5-min Rain = 0
KCA1 132318Z 19012KT 14/M01 A3016 RMK A01 T01441009  RH  035%=      5-min Rain = 0
KCA1 132319Z 19011KT 14/M01 A3016 RMK A01 T01441009  RH  035%=      5-min Rain = 0
KCA1 132320Z 19013KT 14/M01 A3016 RMK A01 T01431010  RH  035%=      5-min Rain = 0
KCA1 132321Z 19011KT 14/M01 A3016 RMK A01 T01421008  RH  036%=      5-min Rain = 0
KCA1 132322Z 19012KT 14/M01 A3016 RMK A01 T01411007  RH  036%=      5-min Rain = 0
KCA1 132323Z 17010KT 14/M01 A3016 RMK A01 T01411006  RH  037%=      5-min Rain = 0
KCA1 132324Z 17012KT 14/00 A3016 RMK A01 T01400000  RH  038%=      5-min Rain = 0
KCA1 132325Z 17012KT 14/01 A3016 RMK A01 T01390006  RH  040%=      5-min Rain = 0
KCA1 132326Z 17012KT 14/01 A3016 RMK A01 T01370007  RH  041%=      5-min Rain = 0
KCA1 132327Z 17012KT 14/01 A3016 RMK A01 T01360008  RH  042%=      5-min Rain = 0
KCA1 132328Z 16012KT 14/01 A3016 RMK A01 T01350009  RH  042%=      5-min Rain = 0
KCA1 132329Z 17012KT 14/01 A3016 RMK A01 T01350009  RH  042%=      5-min Rain = 0
KCA1 132330Z 17011KT 13/01 A3016 RMK A01 T01340009  RH  042%=      5-min Rain = 0
KCA1 132331Z 18012G18KT 13/01 A3016 RMK A01 T01330009  RH  043%=      5-min Rain = 0
KCA1 132332Z 18015KT 13/01 A3016 RMK A01 T01330010  RH  043%=      5-min Rain = 0
KCA1 132333Z 18012KT 13/01 A3016 RMK A01 T01320010  RH  043%=      5-min Rain = 0
KCA1 132334Z 18013KT 13/01 A3016 RMK A01 T01320011  RH  044%=      5-min Rain = 0
KCA1 132335Z 17012KT 13/01 A3016 RMK A01 T01310011  RH  044%=      5-min Rain = 0
KCA1 132336Z 17012KT 13/01 A3016 RMK A01 T01300011  RH  044%=      5-min Rain = 0
KCA1 132337Z 17012KT 13/01 A3016 RMK A01 T01290011  RH  044%=      5-min Rain = 0
KCA1 132338Z 17013KT 13/01 A3016 RMK A01 T01280011  RH  045%=      5-min Rain = 0
KCA1 132339Z 17014KT 13/01 A3016 RMK A01 T01280012  RH  045%=      5-min Rain = 0
KCA1 132340Z 17012KT 13/01 A3016 RMK A01 T01270012  RH  045%=      5-min Rain = 0
KCA1 132341Z 18010KT 13/01 A3017 RMK A01 T01260012  RH  046%=      5-min Rain = 0
KCA1 132342Z 17009KT 13/01 A3017 RMK A01 T01260012  RH  046%=      5-min Rain = 0
KCA1 132343Z 17010KT 13/01 A3017 RMK A01 T01250011  RH  046%=      5-min Rain = 0
KCA1 132344Z 17011KT 12/01 A3016 RMK A01 T01240011  RH  046%=      5-min Rain = 0
KCA1 132345Z 18014KT 12/01 A3016 RMK A01 T01240012  RH  046%=      5-min Rain = 0
KCA1 132346Z 17011KT 12/01 A3016 RMK A01 T01240012  RH  046%=      5-min Rain = 0
KCA1 132347Z 17011KT 12/01 A3017 RMK A01 T01230012  RH  046%=      5-min Rain = 0
KCA1 132348Z 17011KT 12/01 A3016 RMK A01 T01230012  RH  047%=      5-min Rain = 0
KCA1 132349Z 17011KT 12/01 A3016 RMK A01 T01220012  RH  047%=      5-min Rain = 0
KCA1 132350Z 17011KT 12/01 A3016 RMK A01 T01220012  RH  047%=      5-min Rain = 0
KCA1 132351Z 17010KT 12/01 A3016 RMK A01 T01210011  RH  047%=      5-min Rain = 0
KCA1 132352Z 17012KT 12/01 A3017 RMK A01 T01200011  RH  047%=      5-min Rain = 0
KCA1 132353Z 17011KT 12/01 A3017 RMK A01 T01200012  RH  047%=      5-min Rain = 0
KCA1 132354Z 17011KT 12/01 A3016 RMK A01 T01200012  RH  047%=      5-min Rain = 0
KCA1 132355Z 17010KT 12/01 A3016 RMK A01 T01200012  RH  047%=      5-min Rain = 0
KCA1 132356Z 17009KT 12/01 A3016 RMK A01 T01190011  RH  048%=      5-min Rain = 0
KCA1 132357Z 17009KT 12/01 A3016 RMK A01 T01190011  RH  048%=      5-min Rain = 0
KCA1 132358Z 16009KT 12/01 A3016 RMK A01 T01180011  RH  048%=      5-min Rain = 0
KCA1 132359Z 17009KT 12/01 A3016 RMK A01 T01180011  RH  048%=      5-min Rain = 0
KCA1 140000Z 17010KT 12/01 A3016 RMK A01 T01170011  RH  048%=      5-min Rain = 0
KCA1 140001Z 17010KT 12/01 A3017 RMK A01 T01160011  RH  048%=      5-min Rain = 0
KCA1 140002Z 17010KT 12/01 A3017 RMK A01 T01160011  RH  048%=      5-min Rain = 0
KCA1 140003Z 17009KT 12/01 A3017 RMK A01 T01160011  RH  048%=      5-min Rain = 0
KCA1 140004Z 17009KT 12/01 A3016 RMK A01 T01160011  RH  049%=      5-min Rain = 0
KCA1 140005Z 17009KT 12/01 A3016 RMK A01 T01150011  RH  049%=      5-min Rain = 0
KCA1 140006Z 16009KT 12/01 A3016 RMK A01 T01150011  RH  049%=      5-min Rain = 0
KCA1 140007Z 16009KT 11/01 A3017 RMK A01 T01140010  RH  049%=      5-min Rain = 0
KCA1 140008Z 16010KT 11/01 A3017 RMK A01 T01130010  RH  049%=      5-min Rain = 0
KCA1 140009Z 16010KT 11/01 A3017 RMK A01 T01130011  RH  049%=      5-min Rain = 0
KCA1 140010Z 16010KT 11/01 A3017 RMK A01 T01130011  RH  049%=      5-min Rain = 0
KCA1 140011Z 16010KT 11/01 A3017 RMK A01 T01120011  RH  050%=      5-min Rain = 0
KCA1 140012Z 16010KT 11/01 A3017 RMK A01 T01120011  RH  050%=      5-min Rain = 0
KCA1 140013Z 17010KT 11/01 A3017 RMK A01 T01120011  RH  050%=      5-min Rain = 0
KCA1 140014Z 16009KT 11/01 A3017 RMK A01 T01120010  RH  050%=      5-min Rain = 0
KCA1 140015Z 16010KT 11/01 A3017 RMK A01 T01110011  RH  050%=      5-min Rain = 0
KCA1 140016Z 15008KT 11/01 A3017 RMK A01 T01110011  RH  050%=      5-min Rain = 0
KCA1 140017Z 15009KT 11/01 A3017 RMK A01 T01100010  RH  050%=      5-min Rain = 0
KCA1 140018Z 15009KT 11/01 A3017 RMK A01 T01100010  RH  050%=      5-min Rain = 0
KCA1 140019Z 15009KT 11/01 A3017 RMK A01 T01090009  RH  050%=      5-min Rain = 0
KCA1 140020Z 15009KT 11/01 A3017 RMK A01 T01090009  RH  050%=      5-min Rain = 0
KCA1 140021Z 15008KT 11/01 A3017 RMK A01 T01080009  RH  050%=      5-min Rain = 0
KCA1 140022Z 15008KT 11/01 A3017 RMK A01 T01080009  RH  050%=      5-min Rain = 0
KCA1 140023Z 15008KT 11/01 A3017 RMK A01 T01070009  RH  051%=      5-min Rain = 0
KCA1 140024Z 15008KT 11/01 A3017 RMK A01 T01070009  RH  051%=      5-min Rain = 0
KCA1 140025Z 15007KT 11/01 A3017 RMK A01 T01060008  RH  051%=      5-min Rain = 0
KCA1 140026Z 15007KT 11/01 A3017 RMK A01 T01050008  RH  051%=      5-min Rain = 0
KCA1 140027Z 15009KT 10/01 A3017 RMK A01 T01040007  RH  051%=      5-min Rain = 0
KCA1 140028Z 15008KT 10/01 A3017 RMK A01 T01030007  RH  051%=      5-min Rain = 0
KCA1 140029Z 15008KT 10/01 A3017 RMK A01 T01030007  RH  051%=      5-min Rain = 0
KCA1 140030Z 16009KT 10/01 A3017 RMK A01 T01020007  RH  052%=      5-min Rain = 0
KCA1 140031Z 15009KT 10/01 A3017 RMK A01 T01020007  RH  052%=      5-min Rain = 0
KCA1 140032Z 15008KT 10/01 A3017 RMK A01 T01030007  RH  051%=      5-min Rain = 0
KCA1 140033Z 15009KT 10/01 A3017 RMK A01 T01030007  RH  051%=      5-min Rain = 0
KCA1 140034Z 15010KT 10/01 A3017 RMK A01 T01030007  RH  051%=      5-min Rain = 0
KCA1 140035Z 15009KT 10/01 A3017 RMK A01 T01040007  RH  051%=      5-min Rain = 0
KCA1 140036Z 15008KT 10/01 A3017 RMK A01 T01040007  RH  051%=      5-min Rain = 0
KCA1 140037Z 15009KT 10/01 A3017 RMK A01 T01040006  RH  051%=      5-min Rain = 0
KCA1 140038Z 15009KT 10/01 A3017 RMK A01 T01040007  RH  051%=      5-min Rain = 0
KCA1 140039Z 15008KT 10/01 A3017 RMK A01 T01040006  RH  051%=      5-min Rain = 0
KCA1 140040Z 14008KT 10/01 A3017 RMK A01 T01030006  RH  051%=      5-min Rain = 0
KCA1 140041Z 15008KT 10/01 A3017 RMK A01 T01020006  RH  051%=      5-min Rain = 0
KCA1 140042Z 15007KT 10/01 A3017 RMK A01 T01020006  RH  051%=      5-min Rain = 0
KCA1 140043Z 15008KT 10/01 A3017 RMK A01 T01010005  RH  051%=      5-min Rain = 0
KCA1 140044Z 14008KT 10/01 A3017 RMK A01 T01000005  RH  052%=      5-min Rain = 0
KCA1 140045Z 14010KT 10/01 A3017 RMK A01 T01010006  RH  052%=      5-min Rain = 0
KCA1 140046Z 14008KT 10/01 A3017 RMK A01 T01000006  RH  052%=      5-min Rain = 0
KCA1 140047Z 14007KT 10/01 A3017 RMK A01 T01000005  RH  052%=      5-min Rain = 0
KCA1 140048Z 13007KT 10/01 A3017 RMK A01 T01010006  RH  052%=      5-min Rain = 0
KCA1 140049Z 14007KT 10/01 A3017 RMK A01 T01010006  RH  052%=      5-min Rain = 0
KCA1 140050Z 14008KT 10/01 A3017 RMK A01 T01000006  RH  052%=      5-min Rain = 0
KCA1 140051Z 13007KT 10/01 A3017 RMK A01 T01000005  RH  052%=      5-min Rain = 0
KCA1 140052Z 14006KT 10/01 A3017 RMK A01 T01000005  RH  052%=      5-min Rain = 0
KCA1 140053Z 13007KT 10/01 A3017 RMK A01 T00990005  RH  052%=      5-min Rain = 0
KCA1 140054Z 14008KT 10/01 A3017 RMK A01 T00980005  RH  052%=      5-min Rain = 0
KCA1 140055Z 14008KT 10/01 A3017 RMK A01 T00980005  RH  052%=      5-min Rain = 0
KCA1 140056Z 14008KT 10/01 A3017 RMK A01 T00980005  RH  052%=      5-min Rain = 0
KCA1 140057Z 14007KT 10/01 A3017 RMK A01 T00980005  RH  052%=      5-min Rain = 0
KCA1 140058Z 14006KT 10/01 A3017 RMK A01 T00980005  RH  052%=      5-min Rain = 0
KCA1 140059Z 14006KT 10/00 A3017 RMK A01 T00970004  RH  052%=      5-min Rain = 0
KCA1 140100Z 14008KT 10/00 A3017 RMK A01 T00960004  RH  053%=      5-min Rain = 0
KCA1 140101Z 14009KT 10/00 A3017 RMK A01 T00950004  RH  053%=      5-min Rain = 0
KCA1 140102Z 14009KT 10/00 A3017 RMK A01 T00950004  RH  053%=      5-min Rain = 0
KCA1 140103Z 15009KT 10/01 A3017 RMK A01 T00960005  RH  053%=      5-min Rain = 0
KCA1 140104Z 15008KT 10/01 A3017 RMK A01 T00960005  RH  053%=      5-min Rain = 0
KCA1 140105Z 15009KT 10/00 A3017 RMK A01 T00960004  RH  053%=      5-min Rain = 0
KCA1 140106Z 15009KT 10/01 A3017 RMK A01 T00960005  RH  053%=      5-min Rain = 0
KCA1 140107Z 15010KT 10/01 A3017 RMK A01 T00960005  RH  053%=      5-min Rain = 0
KCA1 140108Z 15008KT 10/01 A3017 RMK A01 T00970005  RH  053%=      5-min Rain = 0
KCA1 140109Z 15007KT 10/01 A3017 RMK A01 T00960005  RH  053%=      5-min Rain = 0
KCA1 140110Z 15007KT 10/00 A3017 RMK A01 T00950004  RH  053%=      5-min Rain = 0
KCA1 140111Z 15008KT 09/00 A3017 RMK A01 T00930004  RH  053%=      5-min Rain = 0
KCA1 140112Z 16009KT 09/00 A3017 RMK A01 T00920003  RH  054%=      5-min Rain = 0
KCA1 140113Z 15009KT 09/00 A3017 RMK A01 T00920004  RH  054%=      5-min Rain = 0
KCA1 140114Z 16009KT 09/00 A3017 RMK A01 T00920004  RH  054%=      5-min Rain = 0
KCA1 140115Z 16010KT 09/00 A3017 RMK A01 T00920004  RH  054%=      5-min Rain = 0
KCA1 140116Z 16010KT 09/01 A3017 RMK A01 T00930005  RH  054%=      5-min Rain = 0
KCA1 140117Z 16010KT 09/01 A3017 RMK A01 T00940006  RH  054%=      5-min Rain = 0
KCA1 140118Z 16010KT 09/01 A3017 RMK A01 T00940005  RH  054%=      5-min Rain = 0
KCA1 140119Z 17011KT 10/01 A3017 RMK A01 T00960006  RH  054%=      5-min Rain = 0
KCA1 140120Z 17009KT 10/01 A3017 RMK A01 T00970007  RH  054%=      5-min Rain = 0
KCA1 140121Z 17011KT 10/01 A3017 RMK A01 T00970006  RH  053%=      5-min Rain = 0
KCA1 140122Z 16009KT 10/01 A3017 RMK A01 T00970006  RH  053%=      5-min Rain = 0
KCA1 140123Z 16011KT 10/01 A3017 RMK A01 T00970006  RH  053%=      5-min Rain = 0
KCA1 140124Z 16010KT 10/01 A3017 RMK A01 T00960005  RH  053%=      5-min Rain = 0
KCA1 140125Z 16009KT 10/01 A3017 RMK A01 T00960006  RH  053%=      5-min Rain = 0
KCA1 140126Z 18010KT 10/01 A3017 RMK A01 T00950005  RH  054%=      5-min Rain = 0
KCA1 140127Z 17007KT 10/01 A3017 RMK A01 T00970007  RH  053%=      5-min Rain = 0
KCA1 140128Z 18011KT 10/01 A3017 RMK A01 T00970006  RH  053%=      5-min Rain = 0
KCA1 140129Z 16008KT 10/01 A3017 RMK A01 T00980007  RH  053%=      5-min Rain = 0
KCA1 140130Z 16006KT 10/01 A3017 RMK A01 T00980006  RH  053%=      5-min Rain = 0
KCA1 140131Z 16008KT 10/01 A3017 RMK A01 T00980006  RH  053%=      5-min Rain = 0
KCA1 140132Z 16008KT 10/01 A3017 RMK A01 T00970006  RH  053%=      5-min Rain = 0
KCA1 140133Z 16008KT 10/01 A3017 RMK A01 T00970006  RH  053%=      5-min Rain = 0
KCA1 140134Z 16006KT 10/01 A3017 RMK A01 T00960006  RH  053%=      5-min Rain = 0
KCA1 140135Z 15006KT 10/01 A3017 RMK A01 T00960006  RH  053%=      5-min Rain = 0
KCA1 140136Z 15007KT 10/01 A3017 RMK A01 T00950005  RH  053%=      5-min Rain = 0
KCA1 140137Z 16008KT 09/01 A3017 RMK A01 T00940005  RH  054%=      5-min Rain = 0
KCA1 140138Z 15008KT 09/01 A3017 RMK A01 T00940005  RH  054%=      5-min Rain = 0
KCA1 140139Z 16009KT 09/01 A3017 RMK A01 T00940006  RH  054%=      5-min Rain = 0
KCA1 140140Z 17008KT 10/01 A3017 RMK A01 T00950006  RH  054%=      5-min Rain = 0
KCA1 140141Z 16008KT 10/01 A3017 RMK A01 T00950006  RH  054%=      5-min Rain = 0
KCA1 140142Z 16008KT 10/01 A3017 RMK A01 T00950006  RH  054%=      5-min Rain = 0
KCA1 140143Z 16008KT 10/01 A3017 RMK A01 T00950006  RH  054%=      5-min Rain = 0
KCA1 140144Z 16007KT 10/01 A3017 RMK A01 T00950006  RH  054%=      5-min Rain = 0
KCA1 140145Z 16007KT 09/01 A3017 RMK A01 T00940005  RH  054%=      5-min Rain = 0
KCA1 140146Z 16008KT 09/01 A3017 RMK A01 T00940006  RH  054%=      5-min Rain = 0
KCA1 140147Z 15009KT 09/01 A3017 RMK A01 T00940006  RH  054%=      5-min Rain = 0
KCA1 140148Z 17008KT 10/01 A3017 RMK A01 T00950007  RH  054%=      5-min Rain = 0
KCA1 140149Z 17009KT 10/01 A3017 RMK A01 T00960007  RH  054%=      5-min Rain = 0
KCA1 140150Z 17009KT 10/01 A3017 RMK A01 T00970007  RH  054%=      5-min Rain = 0
KCA1 140151Z 18007KT 10/01 A3017 RMK A01 T00970007  RH  053%=      5-min Rain = 0
KCA1 140152Z 18007KT 10/01 A3017 RMK A01 T00970007  RH  053%=      5-min Rain = 0
KCA1 140153Z 17007KT 10/01 A3017 RMK A01 T00960006  RH  053%=      5-min Rain = 0
KCA1 140154Z 17007KT 10/01 A3017 RMK A01 T00960006  RH  054%=      5-min Rain = 0
KCA1 140155Z 16007KT 10/01 A3017 RMK A01 T00950006  RH  054%=      5-min Rain = 0
KCA1 140156Z 17010KT 09/01 A3017 RMK A01 T00940006  RH  054%=      5-min Rain = 0
KCA1 140157Z 18008KT 10/01 A3017 RMK A01 T00950007  RH  054%=      5-min Rain = 0
KCA1 140158Z 17007KT 10/01 A3017 RMK A01 T00950006  RH  054%=      5-min Rain = 0
KCA1 140159Z 17006KT 09/01 A3017 RMK A01 T00940006  RH  054%=      5-min Rain = 0
KCA1 140200Z 17009KT 09/01 A3017 RMK A01 T00930006  RH  054%=      5-min Rain = 0
KCA1 140201Z 17009KT 09/01 A3017 RMK A01 T00930006  RH  054%=      5-min Rain = 0
KCA1 140202Z 16009KT 09/01 A3017 RMK A01 T00930006  RH  054%=      5-min Rain = 0
KCA1 140203Z 16009KT 09/01 A3017 RMK A01 T00930006  RH  054%=      5-min Rain = 0
KCA1 140204Z 15008KT 09/01 A3017 RMK A01 T00930006  RH  054%=      5-min Rain = 0
KCA1 140205Z 15008KT 09/01 A3017 RMK A01 T00930006  RH  054%=      5-min Rain = 0
KCA1 140206Z 15007KT 09/01 A3017 RMK A01 T00920005  RH  055%=      5-min Rain = 0
KCA1 140207Z 15008KT 09/00 A3017 RMK A01 T00900004  RH  055%=      5-min Rain = 0
KCA1 140208Z 15008KT 09/00 A3017 RMK A01 T00890004  RH  055%=      5-min Rain = 0
KCA1 140209Z 15007KT 09/00 A3017 RMK A01 T00870003  RH  055%=      5-min Rain = 0
KCA1 140210Z 15008KT 09/00 A3017 RMK A01 T00850002  RH  056%=      5-min Rain = 0
KCA1 140211Z 15007KT 08/00 A3017 RMK A01 T00840003  RH  057%=      5-min Rain = 0
KCA1 140212Z 14006KT 08/00 A3017 RMK A01 T00830003  RH  057%=      5-min Rain = 0
KCA1 140213Z 14007KT 08/00 A3017 RMK A01 T00830003  RH  057%=      5-min Rain = 0
KCA1 140214Z 14008KT 08/00 A3017 RMK A01 T00830003  RH  057%=      5-min Rain = 0
KCA1 140215Z 14006KT 08/00 A3017 RMK A01 T00830003  RH  057%=      5-min Rain = 0
KCA1 140216Z 14008KT 08/00 A3017 RMK A01 T00830003  RH  057%=      5-min Rain = 0
KCA1 140217Z 13007KT 08/00 A3017 RMK A01 T00830003  RH  057%=      5-min Rain = 0
KCA1 140218Z 13006KT 08/00 A3017 RMK A01 T00830003  RH  057%=      5-min Rain = 0
KCA1 140219Z 12006KT 08/00 A3017 RMK A01 T00830004  RH  057%=      5-min Rain = 0
KCA1 140220Z 12006KT 08/00 A3017 RMK A01 T00830003  RH  057%=      5-min Rain = 0
KCA1 140221Z 11007KT 08/00 A3017 RMK A01 T00830003  RH  057%=      5-min Rain = 0
KCA1 140222Z 12007KT 08/00 A3017 RMK A01 T00830003  RH  057%=      5-min Rain = 0
KCA1 140223Z 12007KT 08/00 A3017 RMK A01 T00820003  RH  057%=      5-min Rain = 0
KCA1 140224Z 12006KT 08/00 A3017 RMK A01 T00830004  RH  058%=      5-min Rain = 0
KCA1 140225Z 12007KT 08/00 A3017 RMK A01 T00830003  RH  057%=      5-min Rain = 0
KCA1 140226Z 12007KT 08/00 A3017 RMK A01 T00830003  RH  057%=      5-min Rain = 0
KCA1 140227Z 12007KT 08/00 A3017 RMK A01 T00830003  RH  057%=      5-min Rain = 0
KCA1 140228Z 12007KT 08/00 A3017 RMK A01 T00830003  RH  057%=      5-min Rain = 0
KCA1 140229Z 12008KT 08/00 A3017 RMK A01 T00830003  RH  057%=      5-min Rain = 0
KCA1 140230Z 14008KT 08/00 A3017 RMK A01 T00820003  RH  057%=      5-min Rain = 0
KCA1 140231Z 13006KT 08/00 A3017 RMK A01 T00830004  RH  057%=      5-min Rain = 0
KCA1 140232Z 12006KT 08/00 A3017 RMK A01 T00830003  RH  057%=      5-min Rain = 0
KCA1 140233Z 13008KT 08/00 A3017 RMK A01 T00830003  RH  057%=      5-min Rain = 0
KCA1 140234Z 14007KT 08/00 A3017 RMK A01 T00830004  RH  058%=      5-min Rain = 0
KCA1 140235Z 14008KT 08/01 A3017 RMK A01 T00840005  RH  057%=      5-min Rain = 0
KCA1 140236Z 13007KT 09/00 A3017 RMK A01 T00850004  RH  057%=      5-min Rain = 0
KCA1 140237Z 14008KT 08/00 A3017 RMK A01 T00830003  RH  057%=      5-min Rain = 0
KCA1 140238Z 13006KT 08/00 A3017 RMK A01 T00820003  RH  057%=      5-min Rain = 0
KCA1 140239Z 14007KT 08/00 A3017 RMK A01 T00820003  RH  058%=      5-min Rain = 0
KCA1 140240Z 15007KT 08/00 A3017 RMK A01 T00810003  RH  058%=      5-min Rain = 0
KCA1 140241Z 15007KT 08/00 A3017 RMK A01 T00790003  RH  058%=      5-min Rain = 0
KCA1 140242Z 16007KT 08/00 A3017 RMK A01 T00780002  RH  058%=      5-min Rain = 0
KCA1 140243Z 16007KT 08/00 A3017 RMK A01 T00780003  RH  059%=      5-min Rain = 0
KCA1 140244Z 16006KT 08/00 A3017 RMK A01 T00770003  RH  059%=      5-min Rain = 0
KCA1 140245Z 16007KT 08/00 A3017 RMK A01 T00770003  RH  059%=      5-min Rain = 0
KCA1 140246Z 16007KT 08/00 A3017 RMK A01 T00770004  RH  060%=      5-min Rain = 0
KCA1 140247Z 16006KT 08/00 A3017 RMK A01 T00790004  RH  059%=      5-min Rain = 0
KCA1 140248Z 16005KT 08/00 A3016 RMK A01 T00790004  RH  059%=      5-min Rain = 0
KCA1 140249Z 16005KT 08/00 A3016 RMK A01 T00790004  RH  059%=      5-min Rain = 0
KCA1 140250Z 15006KT 08/00 A3016 RMK A01 T00780003  RH  059%=      5-min Rain = 0
KCA1 140251Z 16008KT 08/00 A3016 RMK A01 T00770004  RH  060%=      5-min Rain = 0
KCA1 140252Z 17007G12KT 08/00 A3016 RMK A01 T00770004  RH  060%=      5-min Rain = 0
KCA1 140253Z 15009KT 08/01 A3016 RMK A01 T00780005  RH  060%=      5-min Rain = 0
KCA1 140254Z 16010KT 08/01 A3016 RMK A01 T00790006  RH  060%=      5-min Rain = 0
KCA1 140255Z 16007KT 08/01 A3016 RMK A01 T00810006  RH  059%=      5-min Rain = 0
KCA1 140256Z 16008KT 08/01 A3016 RMK A01 T00810005  RH  059%=      5-min Rain = 0
KCA1 140257Z 16008KT 08/01 A3016 RMK A01 T00800005  RH  059%=      5-min Rain = 0
KCA1 140258Z 16008KT 08/01 A3016 RMK A01 T00800006  RH  060%=      5-min Rain = 0
KCA1 140259Z 17009KT 08/01 A3016 RMK A01 T00800006  RH  060%=      5-min Rain = 0
KCA1 140300Z 16008KT 08/01 A3016 RMK A01 T00810006  RH  059%=      5-min Rain = 0
KCA1 140301Z 17007KT 08/01 A3016 RMK A01 T00800006  RH  059%=      5-min Rain = 0
KCA1 140302Z 17009KT 08/01 A3016 RMK A01 T00790005  RH  059%=      5-min Rain = 0
KCA1 140303Z 16008KT 08/01 A3016 RMK A01 T00790006  RH  060%=      5-min Rain = 0
KCA1 140304Z 17008KT 08/01 A3016 RMK A01 T00790006  RH  060%=      5-min Rain = 0
KCA1 140305Z 17007KT 08/01 A3016 RMK A01 T00790006  RH  060%=      5-min Rain = 0
KCA1 140306Z 17008KT 08/01 A3016 RMK A01 T00790006  RH  060%=      5-min Rain = 0
KCA1 140307Z 16008KT 08/01 A3016 RMK A01 T00790006  RH  060%=      5-min Rain = 0
KCA1 140308Z 17008KT 08/01 A3016 RMK A01 T00790006  RH  060%=      5-min Rain = 0
KCA1 140309Z 16009KT 08/01 A3016 RMK A01 T00780006  RH  060%=      5-min Rain = 0
KCA1 140310Z 16010KT 08/01 A3016 RMK A01 T00780006  RH  060%=      5-min Rain = 0
KCA1 140311Z 16009KT 08/01 A3016 RMK A01 T00780006  RH  061%=      5-min Rain = 0
KCA1 140312Z 16006KT 08/01 A3016 RMK A01 T00780007  RH  060%=      5-min Rain = 0
KCA1 140313Z 16007KT 08/01 A3016 RMK A01 T00780006  RH  060%=      5-min Rain = 0
KCA1 140314Z 15006KT 08/01 A3016 RMK A01 T00770005  RH  061%=      5-min Rain = 0
KCA1 140315Z 15006KT 08/01 A3016 RMK A01 T00750005  RH  061%=      5-min Rain = 0
KCA1 140316Z 15006KT 08/01 A3016 RMK A01 T00750005  RH  061%=      5-min Rain = 0
KCA1 140317Z 15007KT 07/01 A3016 RMK A01 T00740005  RH  061%=      5-min Rain = 0
KCA1 140318Z 14007KT 07/01 A3016 RMK A01 T00740005  RH  062%=      5-min Rain = 0
KCA1 140319Z 16009KT 07/01 A3016 RMK A01 T00730005  RH  062%=      5-min Rain = 0
KCA1 140320Z 15008KT 07/01 A3016 RMK A01 T00740006  RH  062%=      5-min Rain = 0
KCA1 140321Z 14008KT 07/01 A3016 RMK A01 T00740005  RH  062%=      5-min Rain = 0
KCA1 140322Z 14009KT 07/01 A3016 RMK A01 T00740006  RH  062%=      5-min Rain = 0
KCA1 140323Z 15009KT 08/01 A3016 RMK A01 T00750007  RH  062%=      5-min Rain = 0
KCA1 140324Z 15009KT 08/01 A3016 RMK A01 T00760006  RH  061%=      5-min Rain = 0
KCA1 140325Z 14009KT 08/01 A3016 RMK A01 T00750006  RH  062%=      5-min Rain = 0
KCA1 140326Z 14010KT 08/01 A3016 RMK A01 T00760007  RH  062%=      5-min Rain = 0
KCA1 140327Z 15009KT 08/01 A3016 RMK A01 T00750006  RH  062%=      5-min Rain = 0
KCA1 140328Z 15010G15KT 07/01 A3016 RMK A01 T00740006  RH  062%=      5-min Rain = 0
KCA1 140329Z 15012KT 07/01 A3016 RMK A01 T00740006  RH  062%=      5-min Rain = 0
KCA1 140330Z 16011KT 08/01 A3015 RMK A01 T00750008  RH  062%=      5-min Rain = 0
KCA1 140331Z 16009KT 08/01 A3015 RMK A01 T00770008  RH  062%=      5-min Rain = 0
KCA1 140332Z 16009KT 08/01 A3015 RMK A01 T00770007  RH  061%=      5-min Rain = 0
KCA1 140333Z 16011KT 08/01 A3015 RMK A01 T00760007  RH  062%=      5-min Rain = 0
KCA1 140334Z 15010KT 08/01 A3016 RMK A01 T00760008  RH  062%=      5-min Rain = 0
KCA1 140335Z 15010KT 08/01 A3016 RMK A01 T00770008  RH  062%=      5-min Rain = 0
KCA1 140336Z 16010KT 08/01 A3016 RMK A01 T00760007  RH  062%=      5-min Rain = 0
KCA1 140337Z 15009KT 08/01 A3016 RMK A01 T00760008  RH  062%=      5-min Rain = 0
KCA1 140338Z 16009KT 08/01 A3016 RMK A01 T00750007  RH  062%=      5-min Rain = 0
KCA1 140339Z 16010KT 07/01 A3016 RMK A01 T00740007  RH  063%=      5-min Rain = 0
KCA1 140340Z 16010KT 07/01 A3016 RMK A01 T00740008  RH  063%=      5-min Rain = 0
KCA1 140341Z 15010KT 07/01 A3016 RMK A01 T00740008  RH  063%=      5-min Rain = 0
KCA1 140342Z 16010KT 07/01 A3016 RMK A01 T00740008  RH  063%=      5-min Rain = 0
KCA1 140343Z 16011KT 07/01 A3016 RMK A01 T00740009  RH  063%=      5-min Rain = 0
KCA1 140344Z 15011KT 08/01 A3016 RMK A01 T00750009  RH  063%=      5-min Rain = 0
KCA1 140345Z 15011KT 08/01 A3016 RMK A01 T00750009  RH  063%=      5-min Rain = 0
KCA1 140346Z 15012KT 08/01 A3016 RMK A01 T00760009  RH  063%=      5-min Rain = 0
KCA1 140347Z 15011KT 08/01 A3016 RMK A01 T00760010  RH  063%=      5-min Rain = 0
KCA1 140348Z 15010KT 08/01 A3016 RMK A01 T00760009  RH  062%=      5-min Rain = 0
KCA1 140349Z 15011KT 07/01 A3016 RMK A01 T00740008  RH  063%=      5-min Rain = 0
KCA1 140350Z 15011KT 07/01 A3016 RMK A01 T00730008  RH  063%=      5-min Rain = 0
KCA1 140351Z 15011KT 07/01 A3015 RMK A01 T00730009  RH  064%=      5-min Rain = 0
KCA1 140352Z 15012KT 07/01 A3015 RMK A01 T00730010  RH  064%=      5-min Rain = 0
KCA1 140353Z 15011KT 07/01 A3015 RMK A01 T00730010  RH  064%=      5-min Rain = 0
KCA1 140354Z 15011KT 07/01 A3015 RMK A01 T00730010  RH  064%=      5-min Rain = 0
KCA1 140355Z 15013KT 07/01 A3015 RMK A01 T00720010  RH  064%=      5-min Rain = 0
KCA1 140356Z 15012KT 07/01 A3015 RMK A01 T00720011  RH  065%=      5-min Rain = 0
KCA1 140357Z 15013KT 07/01 A3016 RMK A01 T00730011  RH  065%=      5-min Rain = 0
KCA1 140358Z 15010KT 07/01 A3016 RMK A01 T00730011  RH  064%=      5-min Rain = 0
KCA1 140359Z 15011KT 07/01 A3016 RMK A01 T00740011  RH  064%=      5-min Rain = 0
KCA1 140400Z 15010KT 07/01 A3016 RMK A01 T00730011  RH  065%=      5-min Rain = 0
KCA1 140401Z 15010KT 07/01 A3016 RMK A01 T00730010  RH  065%=      5-min Rain = 0
KCA1 140402Z 16011KT 07/01 A3016 RMK A01 T00720010  RH  065%=      5-min Rain = 0
KCA1 140403Z 15009KT 07/01 A3016 RMK A01 T00720011  RH  065%=      5-min Rain = 0
KCA1 140404Z 15009KT 07/01 A3016 RMK A01 T00720011  RH  065%=      5-min Rain = 0
KCA1 140405Z 15010KT 07/01 A3016 RMK A01 T00710011  RH  066%=      5-min Rain = 0
KCA1 140406Z 15009KT 07/01 A3016 RMK A01 T00710011  RH  066%=      5-min Rain = 0
KCA1 140407Z 15008KT 07/01 A3016 RMK A01 T00710011  RH  066%=      5-min Rain = 0
KCA1 140408Z 16008KT 07/01 A3016 RMK A01 T00720012  RH  066%=      5-min Rain = 0
KCA1 140409Z 16006KT 07/01 A3016 RMK A01 T00720012  RH  066%=      5-min Rain = 0
KCA1 140410Z 16006KT 07/01 A3016 RMK A01 T00720011  RH  066%=      5-min Rain = 0
KCA1 140411Z 16007KT 07/01 A3016 RMK A01 T00700011  RH  066%=      5-min Rain = 0
KCA1 140412Z 16007KT 07/01 A3016 RMK A01 T00700011  RH  066%=      5-min Rain = 0
KCA1 140413Z 16007KT 07/01 A3016 RMK A01 T00690011  RH  066%=      5-min Rain = 0
KCA1 140414Z 16006KT 07/01 A3016 RMK A01 T00690011  RH  067%=      5-min Rain = 0
KCA1 140415Z 16007KT 07/01 A3016 RMK A01 T00690011  RH  067%=      5-min Rain = 0
KCA1 140416Z 19008KT 07/01 A3016 RMK A01 T00680011  RH  067%=      5-min Rain = 0
KCA1 140417Z 18007KT 07/01 A3016 RMK A01 T00680012  RH  067%=      5-min Rain = 0
KCA1 140418Z 18004KT 07/01 A3016 RMK A01 T00700013  RH  067%=      5-min Rain = 0
KCA1 140419Z 19005KT 07/01 A3016 RMK A01 T00690012  RH  067%=      5-min Rain = 0
KCA1 140420Z 18005KT 07/01 A3016 RMK A01 T00700013  RH  067%=      5-min Rain = 0
KCA1 140421Z 20006KT 07/01 A3016 RMK A01 T00690012  RH  067%=      5-min Rain = 0
KCA1 140422Z 19006KT 07/01 A3016 RMK A01 T00690012  RH  067%=      5-min Rain = 0
KCA1 140423Z 19005KT 07/01 A3016 RMK A01 T00690011  RH  067%=      5-min Rain = 0
KCA1 140424Z 19003KT 07/01 A3016 RMK A01 T00680011  RH  067%=      5-min Rain = 0
KCA1 140425Z 20004KT 07/01 A3016 RMK A01 T00670010  RH  067%=      5-min Rain = 0
KCA1 140426Z 20005KT 07/01 A3016 RMK A01 T00650010  RH  068%=      5-min Rain = 0
KCA1 140427Z 20005KT 07/01 A3016 RMK A01 T00650010  RH  068%=      5-min Rain = 0
KCA1 140428Z 20008KT 07/01 A3016 RMK A01 T00650011  RH  068%=      5-min Rain = 0
KCA1 140429Z 20007KT 07/01 A3016 RMK A01 T00650011  RH  068%=      5-min Rain = 0
KCA1 140430Z 20008G14KT 07/01 A3016 RMK A01 T00660012  RH  068%=      5-min Rain = 0
KCA1 140431Z 20009KT 07/01 A3016 RMK A01 T00670013  RH  068%=      5-min Rain = 0
KCA1 140432Z 19008KT 07/01 A3016 RMK A01 T00680013  RH  068%=      5-min Rain = 0
KCA1 140433Z 20012KT 07/01 A3016 RMK A01 T00690013  RH  068%=      5-min Rain = 0
KCA1 140434Z 20010KT 07/01 A3016 RMK A01 T00700013  RH  067%=      5-min Rain = 0
KCA1 140435Z 19010KT 07/01 A3016 RMK A01 T00700013  RH  067%=      5-min Rain = 0
KCA1 140436Z 18010KT 07/01 A3016 RMK A01 T00700013  RH  067%=      5-min Rain = 0
KCA1 140437Z 18010KT 07/01 A3015 RMK A01 T00700013  RH  067%=      5-min Rain = 0
KCA1 140438Z 19011KT 07/01 A3015 RMK A01 T00690012  RH  067%=      5-min Rain = 0
KCA1 140439Z 20011KT 07/01 A3015 RMK A01 T00690012  RH  067%=      5-min Rain = 0
KCA1 140440Z 19009KT 07/01 A3015 RMK A01 T00680012  RH  067%=      5-min Rain = 0
KCA1 140441Z 19009KT 07/01 A3015 RMK A01 T00680012  RH  067%=      5-min Rain = 0
KCA1 140442Z 19012KT 07/01 A3015 RMK A01 T00660011  RH  068%=      5-min Rain = 0
KCA1 140443Z 19009KT 07/01 A3015 RMK A01 T00650011  RH  068%=      5-min Rain = 0
KCA1 140444Z 20012KT 07/01 A3015 RMK A01 T00660012  RH  068%=      5-min Rain = 0
KCA1 140445Z 19013KT 07/01 A3015 RMK A01 T00670013  RH  068%=      5-min Rain = 0
KCA1 140446Z 19012KT 07/01 A3015 RMK A01 T00680014  RH  068%=      5-min Rain = 0
KCA1 140447Z 20014KT 07/01 A3015 RMK A01 T00690013  RH  068%=      5-min Rain = 0
KCA1 140448Z 20014KT 07/01 A3015 RMK A01 T00700013  RH  067%=      5-min Rain = 0
KCA1 140449Z 19012KT 07/01 A3015 RMK A01 T00710014  RH  067%=      5-min Rain = 0
KCA1 140450Z 19011KT 07/01 A3015 RMK A01 T00710013  RH  067%=      5-min Rain = 0
KCA1 140451Z 19010KT 07/01 A3015 RMK A01 T00710013  RH  067%=      5-min Rain = 0
KCA1 140452Z 19012KT 07/01 A3015 RMK A01 T00690012  RH  067%=      5-min Rain = 0
KCA1 140453Z 19012G17KT 07/01 A3015 RMK A01 T00680012  RH  068%=      5-min Rain = 0
KCA1 140454Z 19012KT 07/01 A3015 RMK A01 T00680013  RH  068%=      5-min Rain = 0
KCA1 140455Z 19012KT 07/01 A3015 RMK A01 T00680013  RH  068%=      5-min Rain = 0
KCA1 140456Z 19011KT 07/01 A3015 RMK A01 T00690013  RH  068%=      5-min Rain = 0
KCA1 140457Z 19011G18KT 07/01 A3015 RMK A01 T00680013  RH  068%=      5-min Rain = 0
KCA1 140458Z 19014KT 07/01 A3015 RMK A01 T00680013  RH  068%=      5-min Rain = 0
KCA1 140459Z 17012KT 07/01 A3015 RMK A01 T00680014  RH  068%=      5-min Rain = 0
KCA1 140500Z 18012KT 07/01 A3015 RMK A01 T00680013  RH  068%=      5-min Rain = 0
KCA1 140501Z 18013KT 07/01 A3015 RMK A01 T00680013  RH  068%=      5-min Rain = 0
KCA1 140502Z 18014KT 07/01 A3015 RMK A01 T00680014  RH  068%=      5-min Rain = 0
KCA1 140503Z 19013KT 07/01 A3015 RMK A01 T00680013  RH  068%=      5-min Rain = 0
KCA1 140504Z 18012KT 07/01 A3015 RMK A01 T00680014  RH  068%=      5-min Rain = 0
KCA1 140505Z 18013KT 07/01 A3015 RMK A01 T00680014  RH  068%=      5-min Rain = 0
KCA1 140506Z 18011KT 07/01 A3015 RMK A01 T00680014  RH  069%=      5-min Rain = 0
KCA1 140507Z 18013KT 07/01 A3015 RMK A01 T00670014  RH  069%=      5-min Rain = 0
KCA1 140508Z 19014KT 07/01 A3016 RMK A01 T00670014  RH  069%=      5-min Rain = 0
KCA1 140509Z 18011KT 07/02 A3016 RMK A01 T00690015  RH  069%=      5-min Rain = 0
KCA1 140510Z 19009KT 07/02 A3016 RMK A01 T00690015  RH  068%=      5-min Rain = 0
KCA1 140511Z 19009KT 07/01 A3016 RMK A01 T00680013  RH  068%=      5-min Rain = 0
KCA1 140512Z 19010KT 07/01 A3016 RMK A01 T00660014  RH  069%=      5-min Rain = 0
KCA1 140513Z 20011KT 07/01 A3016 RMK A01 T00660014  RH  069%=      5-min Rain = 0
KCA1 140514Z 20011KT 07/01 A3016 RMK A01 T00670014  RH  069%=      5-min Rain = 0
KCA1 140515Z 19009KT 07/02 A3016 RMK A01 T00670015  RH  069%=      5-min Rain = 0
KCA1 140516Z 19009KT 07/02 A3016 RMK A01 T00670015  RH  069%=      5-min Rain = 0
KCA1 140517Z 19010KT 07/02 A3016 RMK A01 T00680015  RH  069%=      5-min Rain = 0
KCA1 140518Z 19009KT 07/02 A3016 RMK A01 T00670015  RH  069%=      5-min Rain = 0
KCA1 140519Z 18010G15KT 07/02 A3016 RMK A01 T00670015  RH  069%=      5-min Rain = 0
KCA1 140520Z 19011G16KT 07/02 A3016 RMK A01 T00670015  RH  069%=      5-min Rain = 0
KCA1 140521Z 19010KT 07/02 A3016 RMK A01 T00680016  RH  069%=      5-min Rain = 0
KCA1 140522Z 19012KT 07/02 A3016 RMK A01 T00680015  RH  069%=      5-min Rain = 0
KCA1 140523Z 19009KT 07/02 A3016 RMK A01 T00680015  RH  069%=      5-min Rain = 0
KCA1 140524Z 19007KT 07/02 A3016 RMK A01 T00680015  RH  069%=      5-min Rain = 0
KCA1 140525Z 20009G15KT 07/02 A3016 RMK A01 T00670015  RH  069%=      5-min Rain = 0
KCA1 140526Z 18010KT 07/02 A3016 RMK A01 T00660015  RH  070%=      5-min Rain = 0
KCA1 140527Z 18007KT 07/02 A3016 RMK A01 T00670015  RH  070%=      5-min Rain = 0
KCA1 140528Z 18007KT 07/02 A3016 RMK A01 T00660015  RH  070%=      5-min Rain = 0
KCA1 140529Z 19008KT 07/02 A3016 RMK A01 T00660015  RH  070%=      5-min Rain = 0
KCA1 140530Z 19009KT 07/02 A3016 RMK A01 T00660016  RH  070%=      5-min Rain = 0
KCA1 140531Z 19005KT 07/02 A3016 RMK A01 T00660016  RH  070%=      5-min Rain = 0
KCA1 140532Z 19006KT 07/02 A3016 RMK A01 T00660015  RH  070%=      5-min Rain = 0
KCA1 140533Z 18008KT 07/02 A3016 RMK A01 T00660015  RH  070%=      5-min Rain = 0
KCA1 140534Z 19007KT 07/02 A3016 RMK A01 T00660016  RH  070%=      5-min Rain = 0
KCA1 140535Z 18007KT 07/02 A3016 RMK A01 T00650016  RH  070%=      5-min Rain = 0
KCA1 140536Z 18008KT 07/02 A3016 RMK A01 T00650016  RH  071%=      5-min Rain = 0
KCA1 140537Z 18006KT 07/02 A3016 RMK A01 T00650016  RH  071%=      5-min Rain = 0
KCA1 140538Z 18004KT 07/02 A3016 RMK A01 T00660016  RH  071%=      5-min Rain = 0
KCA1 140539Z 15002KT 07/02 A3016 RMK A01 T00650016  RH  071%=      5-min Rain = 0
KCA1 140540Z 32000KT 07/02 A3016 RMK A01 T00650015  RH  071%=      5-min Rain = 0
KCA1 140541Z 33001KT 06/01 A3016 RMK A01 T00640014  RH  071%=      5-min Rain = 0
KCA1 140542Z 21002KT 06/01 A3016 RMK A01 T00630014  RH  071%=      5-min Rain = 0
KCA1 140543Z 19003KT 06/01 A3016 RMK A01 T00620014  RH  071%=      5-min Rain = 0
KCA1 140544Z 23004KT 06/02 A3016 RMK A01 T00620015  RH  072%=      5-min Rain = 0
KCA1 140545Z 25002KT 06/02 A3017 RMK A01 T00620015  RH  072%=      5-min Rain = 0
KCA1 140546Z 25000KT 06/02 A3016 RMK A01 T00620015  RH  072%=      5-min Rain = 0
KCA1 140547Z 01000KT 06/02 A3017 RMK A01 T00620016  RH  072%=      5-min Rain = 0
KCA1 140548Z 15001KT 06/02 A3016 RMK A01 T00630016  RH  072%=      5-min Rain = 0
KCA1 140549Z 31001KT 06/02 A3016 RMK A01 T00630016  RH  072%=      5-min Rain = 0
KCA1 140550Z 32001KT 06/02 A3016 RMK A01 T00630017  RH  072%=      5-min Rain = 0
KCA1 140551Z 29001KT 06/02 A3016 RMK A01 T00640017  RH  072%=      5-min Rain = 0
KCA1 140552Z 22001KT 06/02 A3016 RMK A01 T00640016  RH  071%=      5-min Rain = 0
KCA1 140553Z 23001KT 06/02 A3016 RMK A01 T00640016  RH  071%=      5-min Rain = 0
KCA1 140554Z 22003KT 06/02 A3016 RMK A01 T00630015  RH  071%=      5-min Rain = 0
KCA1 140555Z 23004KT 06/02 A3016 RMK A01 T00630015  RH  072%=      5-min Rain = 0
KCA1 140556Z 21003KT 06/02 A3016 RMK A01 T00630016  RH  072%=      5-min Rain = 0
KCA1 140557Z 22006KT 06/02 A3016 RMK A01 T00630016  RH  072%=      5-min Rain = 0
KCA1 140558Z 22005KT 06/02 A3016 RMK A01 T00630016  RH  072%=      5-min Rain = 0
KCA1 140559Z 21005KT 06/02 A3016 RMK A01 T00620015  RH  072%=      5-min Rain = 0

Page generated in 0.1251 seconds.